Home > Products > Valid Products > MTR

000
SAUS46 KLOX 061356
MTR9L2
METAR K9L2 061355Z AUTO 00000KT 10SM CLR M03/M09 A3028 RMK AO2
SLP265 T10331089 FZRANO TSNO $





000
SAUS46 KLOX 061354
MTRMWS
METAR KMWS 061345Z 02505G08KT 07/M20 RMK SNOW DEPTH 1.00





000
SAUS46 KLOX 061350
MTRSDB
METAR KSDB 061348Z AUTO 05012KT 10SM CLR 08/M10 A3028 RMK AO2 SLP230
T00781100 $





000
SAUS46 KLOX 061348
MTRCQT
METAR KCQT 061347Z AUTO 00000KT 10SM CLR 11/M03 A3013 RMK AO2 SLP204
T01061033





000
SAUS46 KLOX 061315
MTRMWS
METAR KMWS 061300Z 03005G08KT 06/M23 RMK SNOW DEPTH 1.00





000
SAUS46 KLOX 061257
MTRMWS
METAR KMWS 061245Z  0506G09KT 06/M23 RMK SNOW DEPTH 1.00





000
SAUS46 KLOX 061257
MTRMWS
METAR KMWS 061245Z  0506G09KT 06/M23 RMK SNOW DEPTH 1.00





000
SAUS46 KLOX 061256
MTR9L2
METAR K9L2 061255Z AUTO 00000KT 10SM CLR M02/M09 A3027 RMK AO2
SLP259 T10221089 FZRANO TSNO $





000
SAUS46 KLOX 061256
MTR9L2
METAR K9L2 061255Z AUTO 00000KT 10SM CLR M02/M09 A3027 RMK AO2
SLP259 T10221089 FZRANO TSNO $





000
SAUS46 KLOX 061249
MTRSDB
METAR KSDB 061248Z AUTO 06009KT 10SM CLR 08/M09 A3028 RMK AO2 SLP227
T00831094 $





000
SAUS46 KLOX 061249
MTRSDB
METAR KSDB 061248Z AUTO 06009KT 10SM CLR 08/M09 A3028 RMK AO2 SLP227
T00831094 $





000
SAUS46 KLOX 061248
MTRCQT
METAR KCQT 061247Z AUTO 00000KT 10SM CLR 10/M03 A3012 RMK AO2 SLP199
T01001028





000
SAUS46 KLOX 061248
MTRCQT
METAR KCQT 061247Z AUTO 00000KT 10SM CLR 10/M03 A3012 RMK AO2 SLP199
T01001028





000
SAUS46 KLOX 061215
MTRMWS
METAR KMWS 061200Z 02505G08KT 07/M26 RMK SNOW DEPTH 2.00





000
SAUS46 KLOX 061215
MTRMWS
METAR KMWS 061200Z 02505G08KT 07/M26 RMK SNOW DEPTH 2.00





000
SAUS46 KLOX 061157
MTR9L2
METAR K9L2 061155Z AUTO 00000KT 10SM CLR M01/M09 A3027 RMK AO2
SLP254 T10061089 10039 21011 55005 FZRANO TSNO $





000
SAUS46 KLOX 061157
MTR9L2
METAR K9L2 061155Z AUTO 00000KT 10SM CLR M01/M09 A3027 RMK AO2
SLP254 T10061089 10039 21011 55005 FZRANO TSNO $





000
SAUS46 KLOX 061154
MTRMWS
METAR KMWS 061145Z 03004G06KT 07/M24 RMK SNOW DEPTH 1.00





000
SAUS46 KLOX 061154
MTRMWS
METAR KMWS 061145Z 03004G06KT 07/M24 RMK SNOW DEPTH 1.00





000
SAUS46 KLOX 061149
MTRSDB
METAR KSDB 061148Z AUTO 05012KT 10SM CLR 08/M10 A3028 RMK AO2 SLP226
T00781100 10100 20067 58009 $





000
SAUS46 KLOX 061149
MTRSDB
METAR KSDB 061148Z AUTO 05012KT 10SM CLR 08/M10 A3028 RMK AO2 SLP226
T00781100 10100 20067 58009 $





000
SAUS46 KLOX 061148
MTRCQT
METAR KCQT 061147Z AUTO 00000KT 10SM CLR 11/M01 A3013 RMK AO2 SLP200
T01061011 10156 20094 56007





000
SAUS46 KLOX 061148
MTRCQT
METAR KCQT 061147Z AUTO 00000KT 10SM CLR 11/M01 A3013 RMK AO2 SLP200
T01061011 10156 20094 56007





000
SAUS46 KLOX 061115
MTRMWS
METAR KMWS 061100Z 02005G09KT 07/M26 RMK SNOW DEPTH 2.00





000
SAUS46 KLOX 061115
MTRMWS
METAR KMWS 061100Z 02005G09KT 07/M26 RMK SNOW DEPTH 2.00





000
SAUS46 KLOX 061100
MTR9L2
METAR K9L2 061055Z AUTO 00000KT 10SM CLR 00/M07 A3027 RMK AO2 SLP254
T00001072 FZRANO TSNO $





000
SAUS46 KLOX 061100
MTR9L2
METAR K9L2 061055Z AUTO 00000KT 10SM CLR 00/M07 A3027 RMK AO2 SLP254
T00001072 FZRANO TSNO $





000
SAUS46 KLOX 061054
MTRMWS
METAR KMWS 061045Z 03003G05KT 06/M24 RMK SNOW DEPTH 1.00





000
SAUS46 KLOX 061049
MTRSDB
METAR KSDB 061048Z AUTO 03013KT 10SM CLR 07/M10 A3029 RMK AO2 SLP230
T00721100 $





000
SAUS46 KLOX 061049
MTRSDB
METAR KSDB 061048Z AUTO 03013KT 10SM CLR 07/M10 A3029 RMK AO2 SLP230
T00721100 $





000
SAUS46 KLOX 061048
MTRCQT
METAR KCQT 061047Z AUTO 00000KT 10SM CLR 11/01 A3013 RMK AO2 SLP201
T01060011





000
SAUS46 KLOX 061048
MTRCQT
METAR KCQT 061047Z AUTO 00000KT 10SM CLR 11/01 A3013 RMK AO2 SLP201
T01060011





000
SAUS46 KLOX 061015
MTRMWS
METAR KMWS 061000Z 03504G05KT 06/M22 RMK SNOW DEPTH 1.00





000
SAUS46 KLOX 061015
MTRMWS
METAR KMWS 061000Z 03504G05KT 06/M22 RMK SNOW DEPTH 1.00





000
SAUS46 KLOX 060956
MTR9L2
METAR K9L2 060955Z AUTO 00000KT 10SM CLR 01/M07 A3028 RMK AO2 SLP256
T00061067 FZRANO TSNO $





000
SAUS46 KLOX 060954
MTRMWS
METAR KMWS 060945Z 02504G06KT 05/M23 RMK SNOW DEPTH 1.00





000
SAUS46 KLOX 060949
MTRSDB
METAR KSDB 060948Z AUTO 03010KT 10SM CLR 07/M10 A3030 RMK AO2 SLP235
T00721100 $





000
SAUS46 KLOX 060948
MTRCQT
METAR KCQT 060947Z AUTO 00000KT 10SM CLR 12/00 A3014 RMK AO2 SLP206
T01170000





000
SAUS46 KLOX 060915
MTRMWS
METAR KMWS 060900Z 01502G04KT 05/M20 RMK SNOW DEPTH 1.00





000
SAUS46 KLOX 060857
MTR9L2
METAR K9L2 060855Z AUTO 01005KT 10SM CLR 02/M07 A3029 RMK AO2 SLP260
T00171067 58004 FZRANO TSNO $





000
SAUS46 KLOX 060854
MTRMWS
METAR KMWS 060845Z 19501G02KT 05/M26 RMK SNOW DEPTH 1.00





000
SAUS46 KLOX 060849
MTRSDB
METAR KSDB 060848Z AUTO 03009KT 10SM CLR 08/M10 A3031 RMK AO2 SLP238
T00781100 58002 $





000
SAUS46 KLOX 060848
MTRCQT
METAR KCQT 060847Z AUTO 00000KT 10SM CLR 13/00 A3015 RMK AO2 SLP208
T01280000 56005





000
SAUS46 KLOX 060815
MTRMWS
METAR KMWS 060800Z 01001G04KT 06/M23 RMK SNOW DEPTH 1.00





000
SAUS46 KLOX 060756
MTR9L2
METAR K9L2 060755Z AUTO 00000KT 10SM CLR 01/M07 A3029 RMK AO2 SLP263
T00111067 402061039 FZRANO TSNO $





000
SAUS46 KLOX 060754
MTRMWS
METAR KMWS 060745Z 02003G04KT 06/M23 RMK SNOW DEPTH 1.00





000
SAUS46 KLOX 060749
MTRSDB
METAR KSDB 060748Z AUTO 05012G17KT 10SM CLR 08/M10 A3031 RMK AO2
SLP238 T00831100 401500044 $





000
SAUS46 KLOX 060748
MTRCQT
METAR KCQT 060747Z AUTO 00000KT 10SM CLR 14/M01 A3015 RMK AO2 SLP209
T01391011 402500106





000
SAUS46 KLOX 060715
MTRMWS
METAR KMWS 060700Z 01503G05KT 06/M21 RMK SNOW DEPTH 1.00





000
SAUS46 KLOX 060657
MTR9L2
METAR K9L2 060655Z AUTO 00000KT 10SM CLR 03/M07 A3030 RMK AO2 SLP265
T00281067 TSNO $





000
SAUS46 KLOX 060654
MTRMWS
METAR KMWS 060645Z 02002G05KT 05/M22 RMK SNOW DEPTH 1.00





000
SAUS46 KLOX 060649
MTRSDB
METAR KSDB 060648Z AUTO 07013G20KT 10SM CLR 09/M11 A3032 RMK AO2
SLP240 T00941106 $





000
SAUS46 KLOX 060648
MTRCQT
METAR KCQT 060647Z AUTO 00000KT 10SM CLR 14/M01 A3016 RMK AO2 SLP211
T01441011





000
SAUS46 KLOX 060615
MTRMWS
METAR KMWS 060600Z 08001G04KT 07/M26 RMK SNOW DEPTH 1.00





000
SAUS46 KLOX 060600
MTR9L2
METAR K9L2 060555Z AUTO 00000KT 10SM CLR 04/M07 A3030 RMK AO2 SLP267
T00391067 10200 20033 51008 TSNO $





000
SAUS46 KLOX 060554
MTRMWS
METAR KMWS 060545Z 35003G06KT 06/M27 RMK SNOW DEPTH 2.00





000
SAUS46 KLOX 060554
MTRMWS
METAR KMWS 060545Z 35003G06KT 06/M27 RMK SNOW DEPTH 2.00





000
SAUS46 KLOX 060549
MTRSDB
METAR KSDB 060548Z AUTO 10SM CLR 09/M10 A3032 RMK AO2 SLP242
T00891100 10144 20078 51005 $





000
SAUS46 KLOX 060549
MTRSDB
METAR KSDB 060548Z AUTO 10SM CLR 09/M10 A3032 RMK AO2 SLP242
T00891100 10144 20078 51005 $





000
SAUS46 KLOX 060548
MTRCQT
METAR KCQT 060547Z AUTO 00000KT 10SM CLR 15/01 A3016 RMK AO2 SLP213
T01500006 10228 20150 55001





000
SAUS46 KLOX 060548
MTRCQT
METAR KCQT 060547Z AUTO 00000KT 10SM CLR 15/01 A3016 RMK AO2 SLP213
T01500006 10228 20150 55001





000
SAUS46 KLOX 060515
MTRMWS
METAR KMWS 060500Z 35504G07KT 08/M25 RMK SNOW DEPTH 2.00





000
SAUS46 KLOX 060515
MTRMWS
METAR KMWS 060500Z 35504G07KT 08/M25 RMK SNOW DEPTH 2.00





000
SAUS46 KLOX 060457
MTR9L2
METAR K9L2 060455Z AUTO 29003KT 10SM CLR 05/M06 A3029 RMK AO2 SLP268
T00501061 TSNO $





000
SAUS46 KLOX 060457
MTR9L2
METAR K9L2 060455Z AUTO 29003KT 10SM CLR 05/M06 A3029 RMK AO2 SLP268
T00501061 TSNO $





000
SAUS46 KLOX 060454
MTRMWS
METAR KMWS 060445Z 02004G07KT 07/M24 RMK SNOW DEPTH 1.00





000
SAUS46 KLOX 060454
MTRMWS
METAR KMWS 060445Z 02004G07KT 07/M24 RMK SNOW DEPTH 1.00





000
SAUS46 KLOX 060449
MTRSDB
METAR KSDB 060448Z AUTO 05011KT 10SM CLR 09/M09 A3031 RMK AO2 SLP243
T00891094 $





000
SAUS46 KLOX 060449
MTRCQT
METAR KCQT 060447Z AUTO 00000KT 10SM CLR 16/01 A3016 RMK AO2 SLP211
T01610006





000
SAUS46 KLOX 060449
MTRSDB
METAR KSDB 060448Z AUTO 05011KT 10SM CLR 09/M09 A3031 RMK AO2 SLP243
T00891094 $





000
SAUS46 KLOX 060415
MTRMWS
METAR KMWS 060400Z 01004G05KT 07/M18 RMK SNOW DEPTH 1.00





000
SAUS46 KLOX 060415
MTRMWS
METAR KMWS 060400Z 01004G05KT 07/M18 RMK SNOW DEPTH 1.00





000
SAUS46 KLOX 060356
MTR9L2
METAR K9L2 060355Z AUTO 02005KT 10SM CLR 09/M07 A3029 RMK AO2 SLP265
T00941072 TSNO $





000
SAUS46 KLOX 060356
MTR9L2
METAR K9L2 060355Z AUTO 02005KT 10SM CLR 09/M07 A3029 RMK AO2 SLP265
T00941072 TSNO $





000
SAUS46 KLOX 060354
MTRMWS
METAR KMWS 060345Z 02005G09KT 07/M20 RMK SNOW DEPTH 1.00





000
SAUS46 KLOX 060354
MTRMWS
METAR KMWS 060345Z 02005G09KT 07/M20 RMK SNOW DEPTH 1.00





000
SAUS46 KLOX 060350
MTRSDB
METAR KSDB 060348Z AUTO 03011KT 10SM CLR 09/M08 A3031 RMK AO2 SLP244
T00891078 $





000
SAUS46 KLOX 060348
MTRCQT
METAR KCQT 060347Z AUTO 00000KT 10SM CLR 18/M02 A3016 RMK AO2 SLP213
T01781017





000
SAUS46 KLOX 060315
MTRMWS
METAR KMWS 060300Z 02505G07KT 06/M17 RMK SNOW DEPTH 1.00





000
SAUS46 KLOX 060315
MTRMWS
METAR KMWS 060300Z 02505G07KT 06/M17 RMK SNOW DEPTH 1.00





000
SAUS46 KLOX 060256
MTR9L2
METAR K9L2 060255Z AUTO 36007KT 10SM CLR 11/M07 A3027 RMK AO2 SLP265
T01061072 53006 $





000
SAUS46 KLOX 060256
MTR9L2
METAR K9L2 060255Z AUTO 36007KT 10SM CLR 11/M07 A3027 RMK AO2 SLP265
T01061072 53006 $





000
SAUS46 KLOX 060254
MTRMWS
METAR KMWS 060245Z 02506G07KT 06/M15 RMK SNOW DEPTH 1.00





000
SAUS46 KLOX 060254
MTRMWS
METAR KMWS 060245Z 02506G07KT 06/M15 RMK SNOW DEPTH 1.00





000
SAUS46 KLOX 060249
MTRSDB
METAR KSDB 060248Z AUTO 07014KT 10SM CLR 11/M09 A3030 RMK AO2 SLP241
T01111089 53001 $





000
SAUS46 KLOX 060249
MTRSDB
METAR KSDB 060248Z AUTO 07014KT 10SM CLR 11/M09 A3030 RMK AO2 SLP241
T01111089 53001 $





000
SAUS46 KLOX 060248
MTRCQT
METAR KCQT 060247Z AUTO 30003KT 10SM CLR 18/M02 A3017 RMK AO2 SLP215
T01831022 53000





000
SAUS46 KLOX 060248
MTRCQT
METAR KCQT 060247Z AUTO 30003KT 10SM CLR 18/M02 A3017 RMK AO2 SLP215
T01831022 53000





000
SAUS46 KLOX 060236
MTRMWS
METAR KMWS 060230Z 23500G00KT MM/M13 RMK SNOW DEPTH 1.00





000
SAUS46 KLOX 060236
MTRMWS
METAR KMWS 060230Z 23500G00KT MM/M13 RMK SNOW DEPTH 1.00





000
SAUS46 KLOX 060215
MTRMWS
METAR KMWS 060200Z 02503G05KT 07/M11 RMK SNOW DEPTH 1.00





000
SAUS46 KLOX 060215
MTRMWS
METAR KMWS 060200Z 02503G05KT 07/M11 RMK SNOW DEPTH 1.00





000
SAUS46 KLOX 060156
MTR9L2
METAR K9L2 060155Z AUTO 03006KT 10SM CLR 14/M08 A3026 RMK AO2 SLP258
T01391078 TSNO $





000
SAUS46 KLOX 060156
MTR9L2
METAR K9L2 060155Z AUTO 03006KT 10SM CLR 14/M08 A3026 RMK AO2 SLP258
T01391078 TSNO $





000
SAUS46 KLOX 060154
MTRMWS
METAR KMWS 060145Z 01001G03KT 07/M11 RMK SNOW DEPTH 1.00





000
SAUS46 KLOX 060154
MTRMWS
METAR KMWS 060145Z 01001G03KT 07/M11 RMK SNOW DEPTH 1.00





000
SAUS46 KLOX 060149
MTRCQT
METAR KCQT 060147Z AUTO 27005KT 10SM CLR 20/M06 A3017 RMK AO2 SLP214
T02001056





000
SAUS46 KLOX 060149
MTRSDB
METAR KSDB 060148Z AUTO 07012KT 10SM CLR 12/M09 A3030 RMK AO2 SLP241
T01171089 $





000
SAUS46 KLOX 060149
MTRCQT
METAR KCQT 060147Z AUTO 27005KT 10SM CLR 20/M06 A3017 RMK AO2 SLP214
T02001056





000
SAUS46 KLOX 060149
MTRSDB
METAR KSDB 060148Z AUTO 07012KT 10SM CLR 12/M09 A3030 RMK AO2 SLP241
T01171089 $





000
SAUS46 KLOX 060136
MTRMWS
METAR KMWS 060130Z 23500G00KT MM/M09 RMK SNOW DEPTH 1.00





000
SAUS46 KLOX 060136
MTRMWS
METAR KMWS 060130Z 23500G00KT MM/M09 RMK SNOW DEPTH 1.00





000
SAUS46 KLOX 060115
MTRMWS
METAR KMWS 060100Z 23500G00KT 11/M08 RMK SNOW DEPTH 2.00





000
SAUS46 KLOX 060115
MTRMWS
METAR KMWS 060100Z 23500G00KT 11/M08 RMK SNOW DEPTH 2.00





000
SAUS46 KLOX 060056
MTR9L2
METAR K9L2 060055Z AUTO 02006KT 10SM CLR 19/M08 A3025 RMK AO2 SLP252
T01891083 TSNO $





000
SAUS46 KLOX 060056
MTR9L2
METAR K9L2 060055Z AUTO 02006KT 10SM CLR 19/M08 A3025 RMK AO2 SLP252
T01891083 TSNO $





000
SAUS46 KLOX 060054
MTRMWS
METAR KMWS 060045Z 23500G00KT 13/M08 RMK SNOW DEPTH 2.00





000
SAUS46 KLOX 060054
MTRMWS
METAR KMWS 060045Z 23500G00KT 13/M08 RMK SNOW DEPTH 2.00





000
SAUS46 KLOX 060049
MTRSDB
METAR KSDB 060048Z AUTO 06013G22KT 10SM CLR 13/M09 A3030 RMK AO2
SLP235 T01331089 $





000
SAUS46 KLOX 060049
MTRSDB
METAR KSDB 060048Z AUTO 06013G22KT 10SM CLR 13/M09 A3030 RMK AO2
SLP235 T01331089 $





000
SAUS46 KLOX 060048
MTRCQT
METAR KCQT 060047Z AUTO VRB03KT 10SM CLR 22/M05 A3017 RMK AO2 SLP213
T02171050





000
SAUS46 KLOX 060048
MTRCQT
METAR KCQT 060047Z AUTO VRB03KT 10SM CLR 22/M05 A3017 RMK AO2 SLP213
T02171050





000
SAUS46 KLOX 060036
MTRMWS
METAR KMWS 060030Z 23500G00KT MM/M08 RMK SNOW DEPTH 2.00





000
SAUS46 KLOX 060036
MTRMWS
METAR KMWS 060030Z 23500G00KT MM/M08 RMK SNOW DEPTH 2.00





000
SAUS46 KLOX 060015
MTRMWS
METAR KMWS 060000Z 23500G00KT 14/M07 RMK SNOW DEPTH 2.00





000
SAUS46 KLOX 060015
MTRMWS
METAR KMWS 060000Z 23500G00KT 14/M07 RMK SNOW DEPTH 2.00





000
SAUS46 KLOX 052356
MTR9L2
METAR K9L2 052355Z AUTO 03007KT 10SM CLR 20/M08 A3025 RMK AO2 SLP250
T02001083 10206 20133 56016 $





000
SAUS46 KLOX 052356
MTR9L2
METAR K9L2 052355Z AUTO 03007KT 10SM CLR 20/M08 A3025 RMK AO2 SLP250
T02001083 10206 20133 56016 $





000
SAUS46 KLOX 052354
MTRMWS
METAR KMWS 052345Z 23500G00KT 14/M07 RMK SNOW DEPTH 2.00





000
SAUS46 KLOX 052354
MTRMWS
METAR KMWS 052345Z 23500G00KT 14/M07 RMK SNOW DEPTH 2.00





000
SAUS46 KLOX 052349
MTRSDB
METAR KSDB 052348Z AUTO 06012G22KT 10SM CLR 14/M09 A3030 RMK AO2
SLP235 T01391094 10150 20111 56009 $





000
SAUS46 KLOX 052349
MTRSDB
METAR KSDB 052348Z AUTO 06012G22KT 10SM CLR 14/M09 A3030 RMK AO2
SLP235 T01391094 10150 20111 56009 $





000
SAUS46 KLOX 052348
MTRCQT
METAR KCQT 052347Z AUTO 28004KT 10SM CLR 23/M02 A3017 RMK AO2 SLP213
T02281022 10250 20206 56013





000
SAUS46 KLOX 052348
MTRCQT
METAR KCQT 052347Z AUTO 28004KT 10SM CLR 23/M02 A3017 RMK AO2 SLP213
T02281022 10250 20206 56013





000
SAUS46 KLOX 052336
MTRMWS
METAR KMWS 052330Z 23500G00KT MM/M06 RMK SNOW DEPTH 2.00





000
SAUS46 KLOX 052336
MTRMWS
METAR KMWS 052330Z 23500G00KT MM/M06 RMK SNOW DEPTH 2.00





000
SAUS46 KLOX 052315
MTRMWS
METAR KMWS 052300Z 23500G00KT 16/M02 RMK SNOW DEPTH 3.00





000
SAUS46 KLOX 052315
MTRMWS
METAR KMWS 052300Z 23500G00KT 16/M02 RMK SNOW DEPTH 3.00





000
SAUS46 KLOX 052256
MTR9L2
METAR K9L2 052255Z AUTO 04011G14KT 10SM CLR 20/M10 A3026 RMK AO2
SLP251 T02001100 $





000
SAUS46 KLOX 052256
MTR9L2
METAR K9L2 052255Z AUTO 04011G14KT 10SM CLR 20/M10 A3026 RMK AO2
SLP251 T02001100 $





000
SAUS46 KLOX 052254
MTRMWS
METAR KMWS 052245Z 23500G00KT 15/M05 RMK SNOW DEPTH 3.00





000
SAUS46 KLOX 052254
MTRMWS
METAR KMWS 052245Z 23500G00KT 15/M05 RMK SNOW DEPTH 3.00





000
SAUS46 KLOX 052249
MTRCQT
METAR KCQT 052247Z AUTO VRB04KT 10SM CLR 23/M04 A3018 RMK AO2 SLP217
T02331044





000
SAUS46 KLOX 052249
MTRSDB
METAR KSDB 052248Z AUTO 06013G21KT 10SM CLR 15/M09 A3031 RMK AO2
SLP237 T01501094 $





000
SAUS46 KLOX 052249
MTRCQT
METAR KCQT 052247Z AUTO VRB04KT 10SM CLR 23/M04 A3018 RMK AO2 SLP217
T02331044





000
SAUS46 KLOX 052249
MTRSDB
METAR KSDB 052248Z AUTO 06013G21KT 10SM CLR 15/M09 A3031 RMK AO2
SLP237 T01501094 $





000
SAUS46 KLOX 052236
MTRMWS
METAR KMWS 052230Z 23500G00KT MM/M03 RMK SNOW DEPTH 3.00





000
SAUS46 KLOX 052236
MTRMWS
METAR KMWS 052230Z 23500G00KT MM/M03 RMK SNOW DEPTH 3.00





000
SAUS46 KLOX 052215
MTRMWS
METAR KMWS 052200Z 23500G00KT 17/M04 RMK SNOW DEPTH 2.00





000
SAUS46 KLOX 052200
MTR9L2
METAR K9L2 052155Z AUTO 02011KT 10SM CLR 20/M11 A3028 RMK AO2 SLP257
T02001106 $





000
SAUS46 KLOX 052154
MTRMWS
METAR KMWS 052145Z 23500G00KT 16/M06 RMK SNOW DEPTH 2.00





000
SAUS46 KLOX 052150
MTRSDB
METAR KSDB 052148Z AUTO 09014G24KT 10SM CLR 14/M09 A3032 RMK AO2 PK
WND 08027/2049 SLP242 T01441089 $





000
SAUS46 KLOX 052148
MTRCQT
METAR KCQT 052147Z AUTO 10SM CLR 24/M06 A3019 RMK AO2 SLP220
T02391056





000
SAUS46 KLOX 052136
MTRMWS
METAR KMWS 052130Z 23500G00KT MM/M04 RMK SNOW DEPTH 3.00





000
SAUS46 KLOX 052136
MTRMWS
METAR KMWS 052130Z 23500G00KT MM/M04 RMK SNOW DEPTH 3.00





000
SAUS46 KLOX 052115
MTRMWS
METAR KMWS 052100Z 23500G00KT 16/M03 RMK SNOW DEPTH 2.00





000
SAUS46 KLOX 052056
MTR9L2
METAR K9L2 052055Z AUTO VRB05KT 10SM CLR 18/M08 A3030 RMK AO2 SLP267
T01831083 58021 $





000
SAUS46 KLOX 052056
MTR9L2
METAR K9L2 052055Z AUTO VRB05KT 10SM CLR 18/M08 A3030 RMK AO2 SLP267
T01831083 58021 $





000
SAUS46 KLOX 052054
MTRMWS
METAR KMWS 052045Z 23500G00KT 16/M02 RMK SNOW DEPTH 2.00





000
SAUS46 KLOX 052049
MTRSDB
METAR KSDB 052048Z AUTO 07014G26KT 10SM 14/M08 A3033 RMK AO2 PK WND
08029/2026 SLP247 T01391078 $





000
SAUS46 KLOX 052049
MTRSDB
METAR KSDB 052048Z AUTO 07014G26KT 10SM 14/M08 A3033 RMK AO2 PK WND
08029/2026 SLP247 T01391078 $





000
SAUS46 KLOX 052048
MTRCQT
METAR KCQT 052047Z AUTO 10SM CLR 24/M06 A3021 RMK AO2 SLP227
T02391061 58020





000
SAUS46 KLOX 052048
MTRCQT
METAR KCQT 052047Z AUTO 10SM CLR 24/M06 A3021 RMK AO2 SLP227
T02391061 58020





000
SAUS46 KLOX 052036
MTRMWS
METAR KMWS 052030Z 23500G00KT MM/M01 RMK SNOW DEPTH 2.00





000
SAUS46 KLOX 052036
MTRMWS
METAR KMWS 052030Z 23500G00KT MM/M01 RMK SNOW DEPTH 2.00





000
SAUS46 KLOX 052015
MTRMWS
METAR KMWS 052000Z 23500G00KT 15/00 RMK SNOW DEPTH 2.00





000
SAUS46 KLOX 051956
MTR9L2
METAR K9L2 051955Z AUTO VRB05KT 10SM CLR 17/M08 A3033 RMK AO2 SLP278
T01721083 TSNO $





000
SAUS46 KLOX 051956
MTR9L2
METAR K9L2 051955Z AUTO VRB05KT 10SM CLR 17/M08 A3033 RMK AO2 SLP278
T01721083 TSNO $





000
SAUS46 KLOX 051954
MTRMWS
METAR KMWS 051945Z 23500G00KT 15/00 RMK SNOW DEPTH 2.00





000
SAUS46 KLOX 051954
MTRMWS
METAR KMWS 051945Z 23500G00KT 15/00 RMK SNOW DEPTH 2.00





000
SAUS46 KLOX 051949
MTRSDB
METAR KSDB 051948Z AUTO 09018G25KT 10SM CLR 14/M09 A3035 RMK AO2 PK
WND 07030/1858 SLP255 T01391089





000
SAUS46 KLOX 051949
MTRSDB
METAR KSDB 051948Z AUTO 09018G25KT 10SM CLR 14/M09 A3035 RMK AO2 PK
WND 07030/1858 SLP255 T01391089





000
SAUS46 KLOX 051948
MTRCQT
METAR KCQT 051947Z AUTO 00000KT 10SM CLR 24/M03 A3023 RMK AO2 SLP237
T02391033





000
SAUS46 KLOX 051948
MTRCQT
METAR KCQT 051947Z AUTO 00000KT 10SM CLR 24/M03 A3023 RMK AO2 SLP237
T02391033





000
SAUS46 KLOX 051936
MTRMWS
METAR KMWS 051930Z 23500G00KT MM/00 RMK SNOW DEPTH 2.00





000
SAUS46 KLOX 051936
MTRMWS
METAR KMWS 051930Z 23500G00KT MM/00 RMK SNOW DEPTH 2.00





000
SAUS46 KLOX 051915
MTRMWS
METAR KMWS 051900Z 23500G00KT 16/M03 RMK SNOW DEPTH 2.00





000
SAUS46 KLOX 051915
MTRMWS
METAR KMWS 051900Z 23500G00KT 16/M03 RMK SNOW DEPTH 2.00





000
SAUS46 KLOX 051856
MTR9L2
METAR K9L2 051855Z AUTO VRB04KT 10SM CLR 16/M09 A3036 RMK AO2 SLP287
T01561089 TSNO $





000
SAUS46 KLOX 051856
MTR9L2
METAR K9L2 051855Z AUTO VRB04KT 10SM CLR 16/M09 A3036 RMK AO2 SLP287
T01561089 TSNO $





000
SAUS46 KLOX 051854
MTRMWS
METAR KMWS 051845Z 23500G00KT 16/M07 RMK SNOW DEPTH 2.00





000
SAUS46 KLOX 051849
MTRSDB
METAR KSDB 051848Z AUTO 08020G26KT 10SM CLR 12/M08 A3036 RMK AO2 PK
WND 12029/1831 SLP258 T01221083





000
SAUS46 KLOX 051848
MTRCQT
METAR KCQT 051847Z AUTO 00000KT 10SM CLR 23/M03 A3025 RMK AO2 SLP243
T02281028





000
SAUS46 KLOX 051836
MTRMWS
METAR KMWS 051830Z 23500G00KT MM/M09 RMK SNOW DEPTH 2.00





000
SAUS46 KLOX 051815
MTRMWS
METAR KMWS 051800Z 23500G00KT 15/M11 RMK SNOW DEPTH 2.00





000
SAUS46 KLOX 051756
MTR9L2
METAR K9L2 051755Z AUTO 03004KT 10SM CLR 13/M07 A3037 RMK AO2 SLP292
T01331067 10133 21039 50010 TSNO $





000
SAUS46 KLOX 051754
MTRMWS
METAR KMWS 051745Z 23500G00KT 14/M13 RMK SNOW DEPTH 2.00





000
SAUS46 KLOX 051754
MTRMWS
METAR KMWS 051745Z 23500G00KT 14/M13 RMK SNOW DEPTH 2.00





000
SAUS46 KLOX 051749
MTRSDB
METAR KSDB 051748Z AUTO 08017G22KT 10SM CLR 11/M08 A3036 RMK AO2
SLP262 T01111083 10111 20061 51019





000
SAUS46 KLOX 051749
MTRSDB
METAR KSDB 051748Z AUTO 08017G22KT 10SM CLR 11/M08 A3036 RMK AO2
SLP262 T01111083 10111 20061 51019





000
SAUS46 KLOX 051748
MTRCQT
METAR KCQT 051747Z AUTO VRB03KT 10SM CLR 21/M02 A3027 RMK AO2 SLP247
T02111022 10211 20106 50010





000
SAUS46 KLOX 051748
MTRCQT
METAR KCQT 051747Z AUTO VRB03KT 10SM CLR 21/M02 A3027 RMK AO2 SLP247
T02111022 10211 20106 50010





000
SAUS46 KLOX 051736
MTRMWS
METAR KMWS 051730Z 23500G00KT MM/M13 RMK SNOW DEPTH 2.00





000
SAUS46 KLOX 051715
MTRMWS
METAR KMWS 051700Z 04001G03KT 12/M14 RMK SNOW DEPTH 2.00





000
SAUS46 KLOX 051715
MTRMWS
METAR KMWS 051700Z 04001G03KT 12/M14 RMK SNOW DEPTH 2.00





000
SAUS46 KLOX 051656
MTR9L2
METAR K9L2 051655Z AUTO 00000KT 10SM CLR 08/M06 A3037 RMK AO2 SLP297
T00781056 TSNO $





000
SAUS46 KLOX 051656
MTR9L2
METAR K9L2 051655Z AUTO 00000KT 10SM CLR 08/M06 A3037 RMK AO2 SLP297
T00781056 TSNO $





000
SAUS46 KLOX 051654
MTRMWS
METAR KMWS 051645Z 05002G03KT 12/M14 RMK SNOW DEPTH 2.00





000
SAUS46 KLOX 051654
MTRMWS
METAR KMWS 051645Z 05002G03KT 12/M14 RMK SNOW DEPTH 2.00





000
SAUS46 KLOX 051649
MTRSDB
METAR KSDB 051648Z AUTO 08019G26KT 10SM CLR 09/M09 A3035 RMK AO2 PK
WND 08026/1559 SLP260 T00941094





000
SAUS46 KLOX 051648
MTRCQT
METAR KCQT 051647Z AUTO 02003KT 10SM CLR 17/M02 A3027 RMK AO2 SLP249
T01721022





000
SAUS46 KLOX 051636
MTRMWS
METAR KMWS 051630Z 23500G00KT MM/M15 RMK SNOW DEPTH 1.00





000
SAUS46 KLOX 051636
MTRMWS
METAR KMWS 051630Z 23500G00KT MM/M15 RMK SNOW DEPTH 1.00





000
SAUS46 KLOX 051615
MTRMWS
METAR KMWS 051600Z 19502G03KT 10/M20 RMK SNOW DEPTH 1.00





000
SAUS46 KLOX 051615
MTRMWS
METAR KMWS 051600Z 19502G03KT 10/M20 RMK SNOW DEPTH 1.00





000
SAUS46 KLOX 051556
MTR9L2
METAR K9L2 051555Z AUTO 00000KT 10SM CLR 04/M07 A3036 RMK AO2 SLP292
T00391067 TSNO $





000
SAUS46 KLOX 051556
MTR9L2
METAR K9L2 051555Z AUTO 00000KT 10SM CLR 04/M07 A3036 RMK AO2 SLP292
T00391067 TSNO $





000
SAUS46 KLOX 051554
MTRMWS
METAR KMWS 051545Z 02001G02KT 10/M18 RMK SNOW DEPTH 1.00





000
SAUS46 KLOX 051554
MTRMWS
METAR KMWS 051545Z 02001G02KT 10/M18 RMK SNOW DEPTH 1.00





000
SAUS46 KLOX 051549
MTRSDB
METAR KSDB 051548Z AUTO 08018G26KT 10SM CLR 08/M11 A3033 RMK AO2 PK
WND 08026/1507 SLP252 T00831106





000
SAUS46 KLOX 051548
MTRCQT
METAR KCQT 051547Z AUTO 00000KT 10SM CLR 14/M01 A3026 RMK AO2 SLP245
T01391011





000
SAUS46 KLOX 051515
MTRMWS
METAR KMWS 051500Z 05003G04KT 06/M20 RMK SNOW DEPTH 1.00





000
SAUS46 KLOX 051456
MTR9L2
METAR K9L2 051455Z AUTO 00000KT 10SM CLR M02/M07 A3033 RMK AO2
SLP289 T10171072 53023 FZRANO TSNO $





000
SAUS46 KLOX 051456
MTR9L2
METAR K9L2 051455Z AUTO 00000KT 10SM CLR M02/M07 A3033 RMK AO2
SLP289 T10171072 53023 FZRANO TSNO $





000
SAUS46 KLOX 051454
MTRMWS
METAR KMWS 051445Z 03504G04KT 04/M21 RMK SNOW DEPTH 1.00





000
SAUS46 KLOX 051449
MTRSDB
METAR KSDB 051448Z AUTO 08019G24KT 10SM CLR 07/M11 A3030 RMK AO2
SLP245 T00671111 53017





000
SAUS46 KLOX 051448
MTRCQT
METAR KCQT 051447Z AUTO 00000KT 10SM CLR 11/M02 A3023 RMK AO2 SLP238
T01111017 53021





000
SAUS46 KLOX 051448
MTRCQT
METAR KCQT 051447Z AUTO 00000KT 10SM CLR 11/M02 A3023 RMK AO2 SLP238
T01111017 53021





000
SAUS46 KLOX 051415
MTRMWS
METAR KMWS 051400Z 02002G03KT 03/M22 RMK SNOW DEPTH 1.00





000
SAUS46 KLOX 051415
MTRMWS
METAR KMWS 051400Z 02002G03KT 03/M22 RMK SNOW DEPTH 1.00





000
SAUS46 KLOX 051356
MTR9L2
METAR K9L2 051355Z AUTO 00000KT 10SM CLR M03/M08 A3031 RMK AO2
SLP278 T10281083 FZRANO TSNO $





000
SAUS46 KLOX 051354
MTRMWS
METAR KMWS 051345Z 02002G02KT 03/M22 RMK SNOW DEPTH 1.00





000
SAUS46 KLOX 051349
MTRSDB
METAR KSDB 051348Z AUTO 07015KT 10SM CLR 06/M11 A3028 RMK AO2 SLP238
T00611111





000
SAUS46 KLOX 051348
MTRCQT
METAR KCQT 051347Z AUTO 00000KT 10SM CLR 11/M02 A3021 RMK AO2 SLP231
T01111017





000
SAUS46 KLOX 051348
MTRCQT
METAR KCQT 051347Z AUTO 00000KT 10SM CLR 11/M02 A3021 RMK AO2 SLP231
T01111017





000
SAUS46 KLOX 051315
MTRMWS
METAR KMWS 051300Z 01001G02KT 05/M25 RMK SNOW DEPTH 1.00





000
SAUS46 KLOX 051256
MTR9L2
METAR K9L2 051255Z AUTO 00000KT 10SM CLR M03/M08 A3028 RMK AO2
SLP265 T10331078 FZRANO TSNO $





000
SAUS46 KLOX 051254
MTRMWS
METAR KMWS 051245Z 21001G01KT 05/M25 RMK SNOW DEPTH 1.00





000
SAUS46 KLOX 051254
MTRMWS
METAR KMWS 051245Z 21001G01KT 05/M25 RMK SNOW DEPTH 1.00





000
SAUS46 KLOX 051249
MTRSDB
METAR KSDB 051248Z AUTO 07018KT 10SM CLR 06/M12 A3026 RMK AO2 PK WND
08026/1155 SLP224 T00611117





000
SAUS46 KLOX 051248
MTRCQT
METAR KCQT 051247Z AUTO 00000KT 10SM CLR 11/M01 A3019 RMK AO2 SLP223
T01111011





000
SAUS46 KLOX 051215
MTRMWS
METAR KMWS 051200Z 10503G03KT 05/M25 RMK SNOW DEPTH 1.00





000
SAUS46 KLOX 051156
MTR9L2
METAR K9L2 051155Z AUTO 00000KT 10SM CLR M03/M07 A3026 RMK AO2
SLP256 70001 T10281072 10022 21033 51004 FZRANO TSNO $





000
SAUS46 KLOX 051156
MTR9L2
METAR K9L2 051155Z AUTO 00000KT 10SM CLR M03/M07 A3026 RMK AO2
SLP256 70001 T10281072 10022 21033 51004 FZRANO TSNO $





000
SAUS46 KLOX 051154
MTRMWS
METAR KMWS 051145Z 14004G04KT 05/M25 RMK SNOW DEPTH 1.00





000
SAUS46 KLOX 051149
MTRSDB
METAR KSDB 051148Z AUTO 07020G26KT 10SM CLR 07/M12 A3024 RMK AO2 PK
WND 07027/1128 SLP218 T00671122 10072 20044 58001





000
SAUS46 KLOX 051149
MTRSDB
METAR KSDB 051148Z AUTO 07020G26KT 10SM CLR 07/M12 A3024 RMK AO2 PK
WND 07027/1128 SLP218 T00671122 10072 20044 58001





000
SAUS46 KLOX 051148
MTRCQT
METAR KCQT 051147Z AUTO 00000KT 10SM CLR 11/00 A3017 RMK AO2 SLP216
T01110000 10150 20111 51003





000
SAUS46 KLOX 051148
MTRCQT
METAR KCQT 051147Z AUTO 00000KT 10SM CLR 11/00 A3017 RMK AO2 SLP216
T01110000 10150 20111 51003





000
SAUS46 KLOX 051115
MTRMWS
METAR KMWS 051100Z 05003G04KT 05/M25 RMK SNOW DEPTH 1.00





000
SAUS46 KLOX 051115
MTRMWS
METAR KMWS 051100Z 05003G04KT 05/M25 RMK SNOW DEPTH 1.00





000
SAUS46 KLOX 051056
MTR9L2
METAR K9L2 051055Z AUTO 00000KT 10SM CLR 01/M08 A3025 RMK AO2 SLP252
T00061083 FZRANO TSNO $





000
SAUS46 KLOX 051056
MTR9L2
METAR K9L2 051055Z AUTO 00000KT 10SM CLR 01/M08 A3025 RMK AO2 SLP252
T00061083 FZRANO TSNO $





000
SAUS46 KLOX 051049
MTRSDB
METAR KSDB 051048Z AUTO 06014KT 10SM CLR 06/M12 A3024 RMK AO2 SLP217
T00611122





000
SAUS46 KLOX 051049
MTRSDB
METAR KSDB 051048Z AUTO 06014KT 10SM CLR 06/M12 A3024 RMK AO2 SLP217
T00611122





000
SAUS46 KLOX 051048
MTRCQT
METAR KCQT 051047Z AUTO 03003KT 10SM CLR 12/01 A3017 RMK AO2 SLP215
T01220006





000
SAUS46 KLOX 051048
MTRCQT
METAR KCQT 051047Z AUTO 03003KT 10SM CLR 12/01 A3017 RMK AO2 SLP215
T01220006





000
SAUS46 KLOX 051015
MTRMWS
METAR KMWS 051000Z 05002G03KT 06/M24 RMK SNOW DEPTH 1.00





000
SAUS46 KLOX 051015
MTRMWS
METAR KMWS 051000Z 05002G03KT 06/M24 RMK SNOW DEPTH 1.00





000
SAUS46 KLOX 050956
MTR9L2
METAR K9L2 050955Z AUTO 00000KT 10SM CLR M01/M07 A3026 RMK AO2
SLP253 T10111072 FZRANO TSNO $





000
SAUS46 KLOX 050954
MTRMWS
METAR KMWS 050945Z 03502G04KT 05/M24 RMK SNOW DEPTH 1.00





000
SAUS46 KLOX 050949
MTRSDB
METAR KSDB 050948Z AUTO 04009KT 10SM CLR 05/M11 A3025 RMK AO2 SLP225
T00501111





000
SAUS46 KLOX 050948
MTRCQT
METAR KCQT 050947Z AUTO 00000KT 10SM CLR 12/03 A3017 RMK AO2 SLP215
T01170033





000
SAUS46 KLOX 050915
MTRMWS
METAR KMWS 050900Z 04004G05KT 04/M22 RMK SNOW DEPTH 1.00





000
SAUS46 KLOX 050915
MTRMWS
METAR KMWS 050900Z 04004G05KT 04/M22 RMK SNOW DEPTH 1.00





000
SAUS46 KLOX 050856
MTR9L2
METAR K9L2 050855Z AUTO 01004KT 10SM CLR M01/M07 A3025 RMK AO2
SLP251 T10061072 51005 FZRANO TSNO $





000
SAUS46 KLOX 050854
MTRMWS
METAR KMWS 050845Z 23500G00KT 05/M19 RMK SNOW DEPTH 1.00





000
SAUS46 KLOX 050854
MTRMWS
METAR KMWS 050845Z 23500G00KT 05/M19 RMK SNOW DEPTH 1.00





000
SAUS46 KLOX 050849
MTRSDB
METAR KSDB 050848Z AUTO 05008KT 10SM CLR 06/M10 A3025 RMK AO2 SLP223
T00561100 51003





000
SAUS46 KLOX 050848
MTRCQT
METAR KCQT 050847Z AUTO 00000KT 10SM CLR 12/04 A3016 RMK AO2 SLP213
T01220039 51006





000
SAUS46 KLOX 050848
MTRCQT
METAR KCQT 050847Z AUTO 00000KT 10SM CLR 12/04 A3016 RMK AO2 SLP213
T01220039 51006





000
SAUS46 KLOX 050815
MTRMWS
METAR KMWS 050800Z 03502G05KT 04/M18 RMK SNOW DEPTH 1.00





000
SAUS46 KLOX 050815
MTRMWS
METAR KMWS 050800Z 03502G05KT 04/M18 RMK SNOW DEPTH 1.00





000
SAUS46 KLOX 050756
MTR9L2
METAR K9L2 050755Z AUTO 35006KT 10SM CLR 00/M07 A3024 RMK AO2 SLP249
T00001072 401721017 FZRANO TSNO $





000
SAUS46 KLOX 050754
MTRMWS
METAR KMWS 050745Z 36002G03KT 04/M19 RMK SNOW DEPTH 1.00





000
SAUS46 KLOX 050749
MTRSDB
METAR KSDB 050748Z AUTO 06009KT 10SM CLR 06/M09 A3024 RMK AO2 SLP221
T00561089 401220028





000
SAUS46 KLOX 050748
MTRCQT
METAR KCQT 050747Z AUTO 00000KT 10SM CLR 14/04 A3016 RMK AO2 SLP211
T01390039 402220089





000
SAUS46 KLOX 050748
MTRCQT
METAR KCQT 050747Z AUTO 00000KT 10SM CLR 14/04 A3016 RMK AO2 SLP211
T01390039 402220089





000
SAUS46 KLOX 050715
MTRMWS
METAR KMWS 050700Z 17500G02KT 03/M22 RMK SNOW DEPTH 1.00





000
SAUS46 KLOX 050715
MTRMWS
METAR KMWS 050700Z 17500G02KT 03/M22 RMK SNOW DEPTH 1.00





000
SAUS46 KLOX 050656
MTR9L2
METAR K9L2 050655Z AUTO 32005KT 10SM CLR 01/M07 A3024 RMK AO2 SLP249
T00111072 FZRANO TSNO $





000
SAUS46 KLOX 050656
MTR9L2
METAR K9L2 050655Z AUTO 32005KT 10SM CLR 01/M07 A3024 RMK AO2 SLP249
T00111072 FZRANO TSNO $





000
SAUS46 KLOX 050654
MTRMWS
METAR KMWS 050645Z 01002G03KT 04/M17 RMK SNOW DEPTH 1.00





000
SAUS46 KLOX 050654
MTRMWS
METAR KMWS 050645Z 01002G03KT 04/M17 RMK SNOW DEPTH 1.00





000
SAUS46 KLOX 050649
MTRSDB
METAR KSDB 050648Z AUTO 05008KT 10SM CLR 07/M09 A3024 RMK AO2 SLP221
T00671089





000
SAUS46 KLOX 050649
MTRSDB
METAR KSDB 050648Z AUTO 05008KT 10SM CLR 07/M09 A3024 RMK AO2 SLP221
T00671089





000
SAUS46 KLOX 050648
MTRCQT
METAR KCQT 050647Z AUTO 00000KT 10SM CLR 15/05 A3015 RMK AO2 SLP208
T01500050





000
SAUS46 KLOX 050648
MTRCQT
METAR KCQT 050647Z AUTO 00000KT 10SM CLR 15/05 A3015 RMK AO2 SLP208
T01500050





000
SAUS46 KLOX 050615
MTRMWS
METAR KMWS 050600Z 01504G06KT 05/M17 RMK SNOW DEPTH 1.00





000
SAUS46 KLOX 050615
MTRMWS
METAR KMWS 050600Z 01504G06KT 05/M17 RMK SNOW DEPTH 1.00





000
SAUS46 KLOX 050556
MTR9L2
METAR K9L2 050555Z AUTO 36006KT 10SM CLR 02/M07 A3023 RMK AO2 SLP247
T00221067 10167 20017 51021 FZRANO TSNO $





000
SAUS46 KLOX 050556
MTR9L2
METAR K9L2 050555Z AUTO 36006KT 10SM CLR 02/M07 A3023 RMK AO2 SLP247
T00221067 10167 20017 51021 FZRANO TSNO $





000
SAUS46 KLOX 050554
MTRMWS
METAR KMWS 050545Z 05504G08KT 05/M18 RMK SNOW DEPTH 1.00





000
SAUS46 KLOX 050554
MTRMWS
METAR KMWS 050545Z 05504G08KT 05/M18 RMK SNOW DEPTH 1.00





000
SAUS46 KLOX 050549
MTRSDB
METAR KSDB 050548Z AUTO 03005KT 10SM CLR 06/M09 A3024 RMK AO2 SLP223
T00611089 10117 20061 51015





000
SAUS46 KLOX 050549
MTRSDB
METAR KSDB 050548Z AUTO 03005KT 10SM CLR 06/M09 A3024 RMK AO2 SLP223
T00611089 10117 20061 51015





000
SAUS46 KLOX 050548
MTRCQT
METAR KCQT 050547Z AUTO 00000KT 10SM CLR 14/08 A3015 RMK AO2 SLP206
T01390078 10206 20139 53014





000
SAUS46 KLOX 050548
MTRCQT
METAR KCQT 050547Z AUTO 00000KT 10SM CLR 14/08 A3015 RMK AO2 SLP206
T01390078 10206 20139 53014





000
SAUS46 KLOX 050515
MTRMWS
METAR KMWS 050500Z 02504G08KT 03/M14 RMK SNOW DEPTH 1.00





000
SAUS46 KLOX 050515
MTRMWS
METAR KMWS 050500Z 02504G08KT 03/M14 RMK SNOW DEPTH 1.00





000
SAUS46 KLOX 050456
MTR9L2
METAR K9L2 050455Z AUTO 36005KT 10SM CLR 04/M07 A3021 RMK AO2 SLP241
T00441072 TSNO $





000
SAUS46 KLOX 050456
MTR9L2
METAR K9L2 050455Z AUTO 36005KT 10SM CLR 04/M07 A3021 RMK AO2 SLP241
T00441072 TSNO $





000
SAUS46 KLOX 050454
MTRMWS
METAR KMWS 050445Z 04003G04KT 04/M13 RMK SNOW DEPTH 1.00





000
SAUS46 KLOX 050454
MTRMWS
METAR KMWS 050445Z 04003G04KT 04/M13 RMK SNOW DEPTH 1.00





000
SAUS46 KLOX 050449
MTRSDB
METAR KSDB 050448Z AUTO 35006KT 10SM CLR 07/M08 A3022 RMK AO2 SLP219
T00671078





000
SAUS46 KLOX 050448
MTRCQT
METAR KCQT 050447Z AUTO 00000KT 10SM CLR 15/08 A3013 RMK AO2 SLP202
T01500078





000
SAUS46 KLOX 050436
MTRMWS
METAR KMWS 050430Z 23500G00KT MM/M13 RMK SNOW DEPTH 1.00





000
SAUS46 KLOX 050415
MTRMWS
METAR KMWS 050400Z  0503G04KT 03/M08 RMK SNOW DEPTH 1.00





000
SAUS46 KLOX 050356
MTR9L2
METAR K9L2 050355Z AUTO 00000KT 10SM CLR 07/M08 A3019 RMK AO2 SLP233
T00721078 TSNO $





000
SAUS46 KLOX 050354
MTRMWS
METAR KMWS 050345Z 01003G04KT 02/M04 RMK SNOW DEPTH 1.00





000
SAUS46 KLOX 050354
MTRMWS
METAR KMWS 050345Z 01003G04KT 02/M04 RMK SNOW DEPTH 1.00





000
SAUS46 KLOX 050349
MTRSDB
METAR KSDB 050348Z AUTO 01003KT 10SM CLR 07/M07 A3021 RMK AO2 SLP214
T00671072





000
SAUS46 KLOX 050348
MTRCQT
METAR KCQT 050347Z AUTO 30003KT 10SM CLR 16/09 A3011 RMK AO2 SLP197
T01560089





000
SAUS46 KLOX 050336
MTRMWS
METAR KMWS 050330Z 23500G00KT MM/M02 RMK SNOW DEPTH 1.00





000
SAUS46 KLOX 050336
MTRMWS
METAR KMWS 050330Z 23500G00KT MM/M02 RMK SNOW DEPTH 1.00





000
SAUS46 KLOX 050315
MTRMWS
METAR KMWS 050300Z 01004G05KT 03/M02 RMK SNOW DEPTH 1.00





000
SAUS46 KLOX 050256
MTR9L2
METAR K9L2 050255Z AUTO 00000KT 10SM CLR 07/M06 A3017 RMK AO2 SLP230
T00671061 53015 TSNO $





000
SAUS46 KLOX 050256
MTR9L2
METAR K9L2 050255Z AUTO 00000KT 10SM CLR 07/M06 A3017 RMK AO2 SLP230
T00671061 53015 TSNO $





000
SAUS46 KLOX 050254
MTRMWS
METAR KMWS 050245Z  0004G04KT 03/M02 RMK SNOW DEPTH 1.00





000
SAUS46 KLOX 050249
MTRSDB
METAR KSDB 050248Z AUTO 01003KT 10SM CLR 07/M07 A3019 RMK AO2 SLP212
T00671067 53009





000
SAUS46 KLOX 050248
MTRCQT
METAR KCQT 050247Z AUTO 28003KT 10SM CLR 16/07 A3010 RMK AO2 SLP193
T01610072 53014





000
SAUS46 KLOX 050236
MTRMWS
METAR KMWS 050230Z 23500G00KT MM/M02 RMK SNOW DEPTH 1.00





000
SAUS46 KLOX 050215
MTRMWS
METAR KMWS 050200Z 23500G00KT 05/M02 RMK SNOW DEPTH 1.00





000
SAUS46 KLOX 050156
MTR9L2
METAR K9L2 050155Z AUTO 35006KT 10SM CLR 11/M09 A3014 RMK AO2 SLP220
T01111094 TSNO $





000
SAUS46 KLOX 050156
MTR9L2
METAR K9L2 050155Z AUTO 35006KT 10SM CLR 11/M09 A3014 RMK AO2 SLP220
T01111094 TSNO $





000
SAUS46 KLOX 050154
MTRMWS
METAR KMWS 050145Z 33001G02KT 07/00 RMK SNOW DEPTH 1.00





000
SAUS46 KLOX 050154
MTRMWS
METAR KMWS 050145Z 33001G02KT 07/00 RMK SNOW DEPTH 1.00





000
SAUS46 KLOX 050149
MTRSDB
METAR KSDB 050148Z AUTO 04007KT 10SM CLR 08/M07 A3017 RMK AO2 SLP203
T00831072





000
SAUS46 KLOX 050149
MTRSDB
METAR KSDB 050148Z AUTO 04007KT 10SM CLR 08/M07 A3017 RMK AO2 SLP203
T00831072





000
SAUS46 KLOX 050149
MTRCQT
METAR KCQT 050147Z AUTO 29004KT 10SM CLR 18/05 A3009 RMK AO2 SLP189
T01780050





000
SAUS46 KLOX 050149
MTRCQT
METAR KCQT 050147Z AUTO 29004KT 10SM CLR 18/05 A3009 RMK AO2 SLP189
T01780050





000
SAUS46 KLOX 050136
MTRMWS
METAR KMWS 050130Z 23500G00KT MM/M01 RMK SNOW DEPTH 1.00





000
SAUS46 KLOX 050115
MTRMWS
METAR KMWS 050100Z 23500G00KT 10/00 RMK SNOW DEPTH 1.00





000
SAUS46 KLOX 050056
MTR9L2
METAR K9L2 050055Z AUTO 05006KT 10SM CLR 16/M13 A3013 RMK AO2 SLP209
T01611133 TSNO $





000
SAUS46 KLOX 050056
MTR9L2
METAR K9L2 050055Z AUTO 05006KT 10SM CLR 16/M13 A3013 RMK AO2 SLP209
T01611133 TSNO $





000
SAUS46 KLOX 050054
MTRMWS
METAR KMWS 050045Z 23500G00KT 10/M01 RMK SNOW DEPTH 1.00





000
SAUS46 KLOX 050054
MTRMWS
METAR KMWS 050045Z 23500G00KT 10/M01 RMK SNOW DEPTH 1.00





000
SAUS46 KLOX 050049
MTRCQT
METAR KCQT 050047Z AUTO VRB04KT 10SM CLR 19/04 A3007 RMK AO2 SLP182
T01890039





000
SAUS46 KLOX 050049
MTRSDB
METAR KSDB 050048Z AUTO 07007KT 10SM CLR 11/M08 A3017 RMK AO2 SLP197
T01111078





000
SAUS46 KLOX 050049
MTRSDB
METAR KSDB 050048Z AUTO 07007KT 10SM CLR 11/M08 A3017 RMK AO2 SLP197
T01111078





000
SAUS46 KLOX 050049
MTRCQT
METAR KCQT 050047Z AUTO VRB04KT 10SM CLR 19/04 A3007 RMK AO2 SLP182
T01890039





000
SAUS46 KLOX 050036
MTRMWS
METAR KMWS 050030Z 23500G00KT MM/00 RMK SNOW DEPTH 1.00





000
SAUS46 KLOX 050015
MTRMWS
METAR KMWS 050000Z 23500G00KT 11/02 RMK SNOW DEPTH 2.00





000
SAUS46 KLOX 042356
MTR9L2
METAR K9L2 042355Z AUTO VRB05KT 10SM CLR 17/M13 A3012 RMK AO2 SLP205
60001 T01671133 10172 20111 56006 TSNO $





000
SAUS46 KLOX 042356
MTR9L2
METAR K9L2 042355Z AUTO VRB05KT 10SM CLR 17/M13 A3012 RMK AO2 SLP205
60001 T01671133 10172 20111 56006 TSNO $





000
SAUS46 KLOX 042354
MTRMWS
METAR KMWS 042345Z 23500G00KT 11/01 RMK SNOW DEPTH 2.00





000
SAUS46 KLOX 042349
MTRSDB
METAR KSDB 042348Z AUTO 07007KT 10SM CLR 12/M08 A3016 RMK AO2 SLP192
T01171078 10122 20083 53001





000
SAUS46 KLOX 042349
MTRCQT
METAR KCQT 042347Z AUTO 28006KT 10SM CLR 21/03 A3006 RMK AO2 SLP180
T02060028 10222 20183 55001





000
SAUS46 KLOX 042349
MTRSDB
METAR KSDB 042348Z AUTO 07007KT 10SM CLR 12/M08 A3016 RMK AO2 SLP192
T01171078 10122 20083 53001





000
SAUS46 KLOX 042349
MTRCQT
METAR KCQT 042347Z AUTO 28006KT 10SM CLR 21/03 A3006 RMK AO2 SLP180
T02060028 10222 20183 55001





000
SAUS46 KLOX 042336
MTRMWS
METAR KMWS 042330Z 23500G00KT MM/01 RMK SNOW DEPTH 2.00





000
SAUS46 KLOX 042336
MTRMWS
METAR KMWS 042330Z 23500G00KT MM/01 RMK SNOW DEPTH 2.00





000
SAUS46 KLOX 042315
MTRMWS
METAR KMWS 042300Z 23500G00KT 10/00 RMK SNOW DEPTH 2.00





000
SAUS46 KLOX 042315
MTRMWS
METAR KMWS 042300Z 23500G00KT 10/00 RMK SNOW DEPTH 2.00





000
SAUS46 KLOX 042256
MTR9L2
METAR K9L2 042255Z AUTO 06006KT 10SM CLR 16/M12 A3013 RMK AO2 SLP206
T01611122 TSNO $





000
SAUS46 KLOX 042254
MTRMWS
METAR KMWS 042245Z 23500G00KT 11/01 RMK SNOW DEPTH 2.00





000
SAUS46 KLOX 042249
MTRSDB
METAR KSDB 042248Z AUTO 08013G18KT 10SM CLR 12/M08 A3016 RMK AO2
SLP190 T01221083





000
SAUS46 KLOX 042248
MTRCQT
METAR KCQT 042247Z AUTO 28007KT 250V310 10SM CLR 21/03 A3006 RMK AO2
SLP178 T02060033





000
SAUS46 KLOX 042236
MTRMWS
METAR KMWS 042230Z 23500G00KT MM/01 RMK SNOW DEPTH 2.00





000
SAUS46 KLOX 042215
MTRMWS
METAR KMWS 042200Z 23500G00KT 11/02 RMK SNOW DEPTH 2.00





000
SAUS46 KLOX 042215
MTRMWS
METAR KMWS 042200Z 23500G00KT 11/02 RMK SNOW DEPTH 2.00





000
SAUS46 KLOX 042156
MTR9L2
METAR K9L2 042155Z AUTO 04010G16KT 10SM CLR 16/M13 A3013 RMK AO2
SLP208 T01611128 TSNO $





000
SAUS46 KLOX 042154
MTRMWS
METAR KMWS 042145Z 23500G00KT MM/02 RMK SNOW DEPTH 2.00





000
SAUS46 KLOX 042149
MTRSDB
METAR KSDB 042148Z AUTO 08011G19KT 10SM CLR 12/M07 A3015 RMK AO2
SLP190 T01171072





000
SAUS46 KLOX 042148
MTRCQT
METAR KCQT 042147Z AUTO 27007KT 240V320 10SM CLR 21/02 A3006 RMK AO2
SLP178 T02110022





000
SAUS46 KLOX 042136
MTRMWS
METAR KMWS 042130Z 23500G00KT MM/02 RMK SNOW DEPTH 2.00





000
SAUS46 KLOX 042115
MTRMWS
METAR KMWS 042100Z 23500G00KT 11/02 RMK SNOW DEPTH 2.00





000
SAUS46 KLOX 042056
MTR9L2
METAR K9L2 042055Z AUTO VRB05KT 10SM CLR 16/M11 A3014 RMK AO2 SLP212
60001 T01561106 58004 TSNO $





000
SAUS46 KLOX 042056
MTR9L2
METAR K9L2 042055Z AUTO VRB05KT 10SM CLR 16/M11 A3014 RMK AO2 SLP212
60001 T01561106 58004 TSNO $





000
SAUS46 KLOX 042054
MTRMWS
METAR KMWS 042045Z 23500G00KT 10/01 RMK SNOW DEPTH 1.00





000
SAUS46 KLOX 042049
MTRSDB
METAR KSDB 042048Z AUTO 09012G22KT 10SM CLR 11/M06 A3015 RMK AO2
SLP192 T01111056 50005





000
SAUS46 KLOX 042048
MTRCQT
METAR KCQT 042047Z AUTO VRB03KT 10SM CLR 22/02 A3007 RMK AO2 SLP180
T02170017 58004





000
SAUS46 KLOX 042048
MTRCQT
METAR KCQT 042047Z AUTO VRB03KT 10SM CLR 22/02 A3007 RMK AO2 SLP180
T02170017 58004





000
SAUS46 KLOX 042036
MTRMWS
METAR KMWS 042030Z 23500G00KT MM/02 RMK SNOW DEPTH 2.00





000
SAUS46 KLOX 042015
MTRMWS
METAR KMWS 042000Z 23500G00KT 09/02 RMK SNOW DEPTH 2.00





000
SAUS46 KLOX 042015
MTRMWS
METAR KMWS 042000Z 23500G00KT 09/02 RMK SNOW DEPTH 2.00





000
SAUS46 KLOX 041956
MTR9L2
METAR K9L2 041955Z AUTO 06011KT 10SM CLR 14/M12 A3016 RMK AO2 SLP217
P0001 T01441117 TSNO $





000
SAUS46 KLOX 041954
MTRMWS
METAR KMWS 041945Z 23500G00KT 10/03 RMK SNOW DEPTH 2.00





000
SAUS46 KLOX 041954
MTRMWS
METAR KMWS 041945Z 23500G00KT 10/03 RMK SNOW DEPTH 2.00





000
SAUS46 KLOX 041949
MTRSDB
METAR KSDB 041948Z AUTO 08008KT 10SM CLR 11/M04 A3016 RMK AO2 SLP196
T01061044





000
SAUS46 KLOX 041949
MTRSDB
METAR KSDB 041948Z AUTO 08008KT 10SM CLR 11/M04 A3016 RMK AO2 SLP196
T01061044





000
SAUS46 KLOX 041948
MTRCQT
METAR KCQT 041947Z AUTO 00000KT 10SM CLR 21/04 A3008 RMK AO2 SLP183
T02060039





000
SAUS46 KLOX 041948
MTRCQT
METAR KCQT 041947Z AUTO 00000KT 10SM CLR 21/04 A3008 RMK AO2 SLP183
T02060039





000
SAUS46 KLOX 041936
MTRMWS
METAR KMWS 041930Z 23500G00KT MM/02 RMK SNOW DEPTH 2.00





000
SAUS46 KLOX 041915
MTRMWS
METAR KMWS 041900Z 23500G00KT 08/00 RMK SNOW DEPTH 2.00





000
SAUS46 KLOX 041857
MTRMWS
METAR KMWS 041845Z 23500G00KT 09/01 RMK SNOW DEPTH 2.00





000
SAUS46 KLOX 041856
MTR9L2
METAR K9L2 041855Z AUTO 07003KT 10SM CLR 13/M07 A3016 RMK AO2 SLP217
T01281072 TSNO $





000
SAUS46 KLOX 041849
MTRSDB
METAR KSDB 041848Z AUTO 09011G17KT 10SM CLR 10/M04 A3015 RMK AO2
SLP192 T01001039





000
SAUS46 KLOX 041849
MTRSDB
METAR KSDB 041848Z AUTO 09011G17KT 10SM CLR 10/M04 A3015 RMK AO2
SLP192 T01001039





000
SAUS46 KLOX 041848
MTRCQT
METAR KCQT 041847Z AUTO VRB05KT 10SM CLR 20/04 A3008 RMK AO2 SLP184
T02000044





000
SAUS46 KLOX 041848
MTRCQT
METAR KCQT 041847Z AUTO VRB05KT 10SM CLR 20/04 A3008 RMK AO2 SLP184
T02000044





000
SAUS46 KLOX 041836
MTRMWS
METAR KMWS 041830Z 23500G00KT MM/01 RMK SNOW DEPTH 2.00





000
SAUS46 KLOX 041836
MTRMWS
METAR KMWS 041830Z 23500G00KT MM/01 RMK SNOW DEPTH 2.00





000
SAUS46 KLOX 041815
MTRMWS
METAR KMWS 041800Z 23500G00KT 11/00 RMK SNOW DEPTH 1.00





000
SAUS46 KLOX 041815
MTRMWS
METAR KMWS 041800Z 23500G00KT 11/00 RMK SNOW DEPTH 1.00





000
SAUS46 KLOX 041756
MTR9L2
METAR K9L2 041755Z AUTO 00000KT 10SM CLR 11/M06 A3015 RMK AO2 SLP218
T01111056 10111 21017 51022 TSNO $





000
SAUS46 KLOX 041754
MTRMWS
METAR KMWS 041745Z 23500G00KT 10/M02 RMK SNOW DEPTH 1.00





000
SAUS46 KLOX 041754
MTRMWS
METAR KMWS 041745Z 23500G00KT 10/M02 RMK SNOW DEPTH 1.00





000
SAUS46 KLOX 041749
MTRSDB
METAR KSDB 041748Z AUTO 08012G18KT 10SM CLR 08/M04 A3014 RMK AO2
SLP191 T00831039 10083 20028 51022





000
SAUS46 KLOX 041749
MTRSDB
METAR KSDB 041748Z AUTO 08012G18KT 10SM CLR 08/M04 A3014 RMK AO2
SLP191 T00831039 10083 20028 51022





000
SAUS46 KLOX 041748
MTRCQT
METAR KCQT 041747Z AUTO 00000KT 10SM CLR 18/05 A3008 RMK AO2 SLP184
T01830050 10189 20089 51019





000
SAUS46 KLOX 041748
MTRCQT
METAR KCQT 041747Z AUTO 00000KT 10SM CLR 18/05 A3008 RMK AO2 SLP184
T01830050 10189 20089 51019





000
SAUS46 KLOX 041736
MTRMWS
METAR KMWS 041730Z 23500G00KT MM/M01 RMK SNOW DEPTH 1.00





000
SAUS46 KLOX 041736
MTRMWS
METAR KMWS 041730Z 23500G00KT MM/M01 RMK SNOW DEPTH 1.00





000
SAUS46 KLOX 041715
MTRMWS
METAR KMWS 041700Z 09000G02KT 10/M04 RMK SNOW DEPTH 1.00





000
SAUS46 KLOX 041656
MTR9L2
METAR K9L2 041655Z AUTO 07003KT 10SM CLR 09/M03 A3014 RMK AO2 SLP213
T00891033 TSNO $





000
SAUS46 KLOX 041656
MTR9L2
METAR K9L2 041655Z AUTO 07003KT 10SM CLR 09/M03 A3014 RMK AO2 SLP213
T00891033 TSNO $





000
SAUS46 KLOX 041654
MTRMWS
METAR KMWS 041645Z 23500G00KT MM/M05 RMK SNOW DEPTH 1.00





000
SAUS46 KLOX 041654
MTRMWS
METAR KMWS 041645Z 23500G00KT MM/M05 RMK SNOW DEPTH 1.00





000
SAUS46 KLOX 041650
MTRSDB
METAR KSDB 041648Z AUTO 07013G20KT 10SM CLR 07/M03 A3012 RMK AO2
SLP185 T00671033





000
SAUS46 KLOX 041648
MTRCQT
METAR KCQT 041647Z AUTO 00000KT 10SM CLR 16/06 A3007 RMK AO2 SLP183
T01610056





000
SAUS46 KLOX 041648
MTRCQT
METAR KCQT 041647Z AUTO 00000KT 10SM CLR 16/06 A3007 RMK AO2 SLP183
T01610056





000
SAUS46 KLOX 041636
MTRMWS
METAR KMWS 041630Z 23500G00KT MM/M05 RMK SNOW DEPTH 1.00





000
SAUS46 KLOX 041615
MTRMWS
METAR KMWS 041600Z 21505G06KT 05/M05 RMK SNOW DEPTH 1.00





000
SAUS46 KLOX 041615
MTRMWS
METAR KMWS 041600Z 21505G06KT 05/M05 RMK SNOW DEPTH 1.00





000
SAUS46 KLOX 041556
MTR9L2
METAR K9L2 041555Z AUTO 35003KT 10SM CLR 04/M01 A3011 RMK AO2 SLP208
T00441006 TSNO $





000
SAUS46 KLOX 041554
MTRMWS
METAR KMWS 041545Z 22005G07KT 05/M05 RMK SNOW DEPTH 0.00





000
SAUS46 KLOX 041550
MTRSDB
METAR KSDB 041548Z AUTO 04010KT 10SM CLR 05/M01 A3009 RMK AO2 SLP177
T00501006





000
SAUS46 KLOX 041549
MTRCQT
METAR KCQT 041547Z AUTO 00000KT 10SM CLR 13/05 A3005 RMK AO2 SLP175
T01280050





000
SAUS46 KLOX 041536
MTRMWS
METAR KMWS 041530Z 23500G00KT MM/M05 RMK SNOW DEPTH 0.00





000
SAUS46 KLOX 041515
MTRMWS
METAR KMWS 041500Z 23506G07KT 03/M07 RMK SNOW DEPTH 0.00





000
SAUS46 KLOX 041515
MTRMWS
METAR KMWS 041500Z 23506G07KT 03/M07 RMK SNOW DEPTH 0.00





000
SAUS46 KLOX 041456
MTR9L2
METAR K9L2 041455Z AUTO 00000KT 10SM CLR 00/M03 A3008 RMK AO2 SLP199
T00001028 53019 FZRANO TSNO $





000
SAUS46 KLOX 041454
MTRMWS
METAR KMWS 041445Z 01500G01KT 02/M08 RMK SNOW DEPTH 1.00





000
SAUS46 KLOX 041449
MTRSDB
METAR KSDB 041448Z AUTO 04007KT 10SM CLR 03/M01 A3006 RMK AO2 SLP172
T00331011 52015





000
SAUS46 KLOX 041448
MTRCQT
METAR KCQT 041447Z AUTO 00000KT 10SM CLR 10/04 A3002 RMK AO2 SLP166
T01000044 53018





000
SAUS46 KLOX 041436
MTRMWS
METAR KMWS 041430Z 23500G00KT MM/M08 RMK SNOW DEPTH 1.00





000
SAUS46 KLOX 041436
MTRMWS
METAR KMWS 041430Z 23500G00KT MM/M08 RMK SNOW DEPTH 1.00





000
SAUS46 KLOX 041415
MTRMWS
METAR KMWS 041400Z 06502G04KT 02/M07 RMK SNOW DEPTH 0.00





000
SAUS46 KLOX 041356
MTR9L2
METAR K9L2 041355Z AUTO 29004KT 10SM CLR M01/M03 A3006 RMK AO2
SLP190 T10111028 FZRANO TSNO $





000
SAUS46 KLOX 041356
MTR9L2
METAR K9L2 041355Z AUTO 29004KT 10SM CLR M01/M03 A3006 RMK AO2
SLP190 T10111028 FZRANO TSNO $





000
SAUS46 KLOX 041354
MTRMWS
METAR KMWS 041345Z 05504G06KT 02/M05 RMK SNOW DEPTH 1.00





000
SAUS46 KLOX 041354
MTRMWS
METAR KMWS 041345Z 05504G06KT 02/M05 RMK SNOW DEPTH 1.00





000
SAUS46 KLOX 041349
MTRSDB
METAR KSDB 041348Z AUTO 03006KT 10SM CLR 03/M01 A3004 RMK AO2 SLP165
T00331011





000
SAUS46 KLOX 041348
MTRCQT
METAR KCQT 041347Z AUTO 00000KT 10SM CLR 10/05 A3000 RMK AO2 SLP159
T01000050





000
SAUS46 KLOX 041336
MTRMWS
METAR KMWS 041330Z 23500G00KT MM/M04 RMK SNOW DEPTH 1.00





000
SAUS46 KLOX 041336
MTRMWS
METAR KMWS 041330Z 23500G00KT MM/M04 RMK SNOW DEPTH 1.00





000
SAUS46 KLOX 041315
MTRMWS
METAR KMWS 041300Z 04007G09KT 00/M05 RMK SNOW DEPTH 0.00





000
SAUS46 KLOX 041315
MTRMWS
METAR KMWS 041300Z 04007G09KT 00/M05 RMK SNOW DEPTH 0.00





000
SAUS46 KLOX 041256
MTR9L2
METAR K9L2 041255Z AUTO 00000KT 10SM CLR M01/M03 A3004 RMK AO2
SLP182 T10111028 FZRANO TSNO $





000
SAUS46 KLOX 041254
MTRMWS
METAR KMWS 041245Z 03504G06KT 00/M03 RMK SNOW DEPTH 0.00





000
SAUS46 KLOX 041249
MTRSDB
METAR KSDB 041248Z AUTO 36004KT 10SM FEW037 04/M01 A3004 RMK AO2
SLP158 T00391006





000
SAUS46 KLOX 041249
MTRSDB
METAR KSDB 041248Z AUTO 36004KT 10SM FEW037 04/M01 A3004 RMK AO2
SLP158 T00391006





000
SAUS46 KLOX 041248
MTRCQT
METAR KCQT 041247Z AUTO 00000KT 10SM CLR 10/05 A2998 RMK AO2 SLP152
T01000050





000
SAUS46 KLOX 041236
MTRMWS
METAR KMWS 041230Z 23500G00KT MM/M02 RMK SNOW DEPTH 0.00





000
SAUS46 KLOX 041215
MTRMWS
METAR KMWS 041200Z 30001G03KT 01/M03 RMK SNOW DEPTH 0.00





000
SAUS46 KLOX 041156
MTR9L2
METAR K9L2 041155Z AUTO 32003KT 10SM CLR M01/M03 A3002 RMK AO2
SLP173 T10061028 10050 21006 51009 FZRANO TSNO $





000
SAUS46 KLOX 041156
MTR9L2
METAR K9L2 041155Z AUTO 32003KT 10SM CLR M01/M03 A3002 RMK AO2
SLP173 T10061028 10050 21006 51009 FZRANO TSNO $





000
SAUS46 KLOX 041154
MTRMWS
METAR KMWS 041145Z 09001G04KT 01/M03 RMK SNOW DEPTH 0.00





000
SAUS46 KLOX 041154
MTRMWS
METAR KMWS 041145Z 09001G04KT 01/M03 RMK SNOW DEPTH 0.00





000
SAUS46 KLOX 041149
MTRSDB
METAR KSDB 041148Z AUTO 35005KT 10SM CLR 04/M01 A3002 RMK AO2 SLP148
T00441006 10056 20039 53004





000
SAUS46 KLOX 041148
MTRCQT
METAR KCQT 041147Z AUTO 00000KT 10SM CLR 11/06 A2997 RMK AO2 SLP148
T01060056 10133 20106 58000





000
SAUS46 KLOX 041136
MTRMWS
METAR KMWS 041130Z 23500G00KT MM/M02 RMK SNOW DEPTH 0.00





000
SAUS46 KLOX 041136
MTRMWS
METAR KMWS 041130Z 23500G00KT MM/M02 RMK SNOW DEPTH 0.00





000
SAUS46 KLOX 041115
MTRMWS
METAR KMWS 041100Z 31501G03KT 01/M04 RMK SNOW DEPTH 0.00





000
SAUS46 KLOX 041115
MTRMWS
METAR KMWS 041100Z 31501G03KT 01/M04 RMK SNOW DEPTH 0.00





000
SAUS46 KLOX 041056
MTR9L2
METAR K9L2 041055Z AUTO 01004KT 10SM CLR 01/M02 A3001 RMK AO2 SLP168
T00111017 FZRANO TSNO $





000
SAUS46 KLOX 041056
MTR9L2
METAR K9L2 041055Z AUTO 01004KT 10SM CLR 01/M02 A3001 RMK AO2 SLP168
T00111017 FZRANO TSNO $





000
SAUS46 KLOX 041054
MTRMWS
METAR KMWS 041045Z 35501G03KT 02/M05 RMK SNOW DEPTH 0.00





000
SAUS46 KLOX 041049
MTRSDB
METAR KSDB 041048Z AUTO 36003KT 10SM CLR 05/M01 A3001 RMK AO2 SLP143
T00501011





000
SAUS46 KLOX 041048
MTRCQT
METAR KCQT 041047Z AUTO 03004KT 10SM CLR 11/07 A2997 RMK AO2 SLP148
T01110067





000
SAUS46 KLOX 041036
MTRMWS
METAR KMWS 041030Z 23500G00KT MM/M06 RMK SNOW DEPTH 0.00





000
SAUS46 KLOX 041036
MTRMWS
METAR KMWS 041030Z 23500G00KT MM/M06 RMK SNOW DEPTH 0.00





000
SAUS46 KLOX 041015
MTRMWS
METAR KMWS 041000Z 02003G05KT 02/M05 RMK SNOW DEPTH 0.00





000
SAUS46 KLOX 040956
MTR9L2
METAR K9L2 040955Z AUTO 06003KT 10SM FEW060 02/M02 A3000 RMK AO2
SLP166 T00171022 FZRANO TSNO $





000
SAUS46 KLOX 040954
MTRMWS
METAR KMWS 040945Z 04004G06KT 01/M04 RMK SNOW DEPTH 0.00





000
SAUS46 KLOX 040949
MTRSDB
METAR KSDB 040948Z AUTO 34008KT 10SM CLR 04/M02 A3001 RMK AO2 SLP146
T00441017





000
SAUS46 KLOX 040949
MTRSDB
METAR KSDB 040948Z AUTO 34008KT 10SM CLR 04/M02 A3001 RMK AO2 SLP146
T00441017





000
SAUS46 KLOX 040948
MTRCQT
METAR KCQT 040947Z AUTO 00000KT 10SM CLR 11/07 A2998 RMK AO2 SLP152
T01110072





000
SAUS46 KLOX 040948
MTRCQT
METAR KCQT 040947Z AUTO 00000KT 10SM CLR 11/07 A2998 RMK AO2 SLP152
T01110072





000
SAUS46 KLOX 040936
MTRMWS
METAR KMWS 040930Z 23500G00KT MM/M04 RMK SNOW DEPTH 0.00





000
SAUS46 KLOX 040915
MTRMWS
METAR KMWS 040900Z 23500G00KT 01/M07 RMK SNOW DEPTH 0.00





000
SAUS46 KLOX 040915
MTRMWS
METAR KMWS 040900Z 23500G00KT 01/M07 RMK SNOW DEPTH 0.00





000
SAUS46 KLOX 040856
MTR9L2
METAR K9L2 040855Z AUTO 00000KT 10SM SCT060 02/M01 A2999 RMK AO2
SLP162 T00221011 52013 FZRANO TSNO $





000
SAUS46 KLOX 040856
MTR9L2
METAR K9L2 040855Z AUTO 00000KT 10SM SCT060 02/M01 A2999 RMK AO2
SLP162 T00221011 52013 FZRANO TSNO $





000
SAUS46 KLOX 040854
MTRMWS
METAR KMWS 040845Z 21503G03KT 02/M07 RMK SNOW DEPTH 0.00





000
SAUS46 KLOX 040849
MTRSDB
METAR KSDB 040848Z AUTO 33009KT 10SM CLR 04/M02 A3000 RMK AO2 SLP144
T00391017 53008





000
SAUS46 KLOX 040849
MTRSDB
METAR KSDB 040848Z AUTO 33009KT 10SM CLR 04/M02 A3000 RMK AO2 SLP144
T00391017 53008





000
SAUS46 KLOX 040848
MTRCQT
METAR KCQT 040847Z AUTO 00000KT 10SM CLR 12/08 A2997 RMK AO2 SLP149
T01220078 53010





000
SAUS46 KLOX 040836
MTRMWS
METAR KMWS 040830Z 23500G00KT MM/M06 RMK SNOW DEPTH 0.00





000
SAUS46 KLOX 040836
MTRMWS
METAR KMWS 040830Z 23500G00KT MM/M06 RMK SNOW DEPTH 0.00





000
SAUS46 KLOX 040815
MTRMWS
METAR KMWS 040800Z 19005G05KT 02/M05 RMK SNOW DEPTH 1.00





000
SAUS46 KLOX 040815
MTRMWS
METAR KMWS 040800Z 19005G05KT 02/M05 RMK SNOW DEPTH 1.00





000
SAUS46 KLOX 040756
MTR9L2
METAR K9L2 040755Z AUTO 31004KT 10SM BKN060 03/00 A2997 RMK AO2
SLP157 T00330000 401561017 TSNO $





000
SAUS46 KLOX 040756
MTR9L2
METAR K9L2 040755Z AUTO 31004KT 10SM BKN060 03/00 A2997 RMK AO2
SLP157 T00330000 401561017 TSNO $





000
SAUS46 KLOX 040754
MTRMWS
METAR KMWS 040745Z 19004G06KT 02/M06 RMK SNOW DEPTH 0.00





000
SAUS46 KLOX 040749
MTRSDB
METAR KSDB 040748Z AUTO 34006KT 10SM CLR 04/M02 A2999 RMK AO2 SLP140
T00391017 400890011





000
SAUS46 KLOX 040748
MTRCQT
METAR KCQT 040747Z AUTO 00000KT 10SM CLR 13/08 A2996 RMK AO2 SLP144
T01280083 401940089





000
SAUS46 KLOX 040736
MTRMWS
METAR KMWS 040730Z 23500G00KT MM/M05 RMK SNOW DEPTH 0.00





000
SAUS46 KLOX 040736
MTRMWS
METAR KMWS 040730Z 23500G00KT MM/M05 RMK SNOW DEPTH 0.00





000
SAUS46 KLOX 040715
MTRMWS
METAR KMWS 040700Z 04003G04KT 01/M04 RMK SNOW DEPTH 0.00





000
SAUS46 KLOX 040715
MTRMWS
METAR KMWS 040700Z 04003G04KT 01/M04 RMK SNOW DEPTH 0.00





000
SAUS46 KLOX 040659
MTR9L2
METAR K9L2 040655Z AUTO 21005KT 10SM CLR 04/00 A2997 RMK AO2 SLP156
T00440000 TSNO $





000
SAUS46 KLOX 040659
MTR9L2
METAR K9L2 040655Z AUTO 21005KT 10SM CLR 04/00 A2997 RMK AO2 SLP156
T00440000 TSNO $





000
SAUS46 KLOX 040654
MTRMWS
METAR KMWS 040645Z 01504G05KT 00/M04 RMK SNOW DEPTH 0.00





000
SAUS46 KLOX 040654
MTRMWS
METAR KMWS 040645Z 01504G05KT 00/M04 RMK SNOW DEPTH 0.00





000
SAUS46 KLOX 040649
MTRSDB
METAR KSDB 040648Z AUTO 35010KT 10SM CLR 04/M01 A2999 RMK AO2 SLP139
T00391011





000
SAUS46 KLOX 040649
MTRSDB
METAR KSDB 040648Z AUTO 35010KT 10SM CLR 04/M01 A2999 RMK AO2 SLP139
T00391011





000
SAUS46 KLOX 040648
MTRCQT
METAR KCQT 040647Z AUTO 00000KT 10SM CLR 13/06 A2995 RMK AO2 SLP141
T01280061





000
SAUS46 KLOX 040648
MTRCQT
METAR KCQT 040647Z AUTO 00000KT 10SM CLR 13/06 A2995 RMK AO2 SLP141
T01280061





000
SAUS46 KLOX 040636
MTRMWS
METAR KMWS 040630Z 23500G00KT MM/M03 RMK SNOW DEPTH 0.00





000
SAUS46 KLOX 040636
MTRMWS
METAR KMWS 040630Z 23500G00KT MM/M03 RMK SNOW DEPTH 0.00





000
SAUS46 KLOX 040615
MTRMWS
METAR KMWS 040600Z 35500G02KT 00/M02 RMK SNOW DEPTH 0.00





000
SAUS46 KLOX 040615
MTRMWS
METAR KMWS 040600Z 35500G02KT 00/M02 RMK SNOW DEPTH 0.00





000
SAUS46 KLOX 040559
MTR9L2
METAR K9L2 040555Z AUTO 24003KT 10SM CLR 04/M01 A2995 RMK AO2 SLP152
T00391006 10150 20033 51018 TSNO $





000
SAUS46 KLOX 040559
MTR9L2
METAR K9L2 040555Z AUTO 24003KT 10SM CLR 04/M01 A2995 RMK AO2 SLP152
T00391006 10150 20033 51018 TSNO $





000
SAUS46 KLOX 040554
MTRMWS
METAR KMWS 040545Z 01002G03KT 00/M02 RMK SNOW DEPTH 0.00





000
SAUS46 KLOX 040554
MTRMWS
METAR KMWS 040545Z 01002G03KT 00/M02 RMK SNOW DEPTH 0.00





000
SAUS46 KLOX 040549
MTRSDB
METAR KSDB 040548Z AUTO 34014KT 10SM CLR 04/00 A2998 RMK AO2 SLP138
T00390000 10072 20039 53014





000
SAUS46 KLOX 040549
MTRSDB
METAR KSDB 040548Z AUTO 34014KT 10SM CLR 04/00 A2998 RMK AO2 SLP138
T00390000 10072 20039 53014





000
SAUS46 KLOX 040548
MTRCQT
METAR KCQT 040547Z AUTO 00000KT 10SM CLR 13/08 A2994 RMK AO2 SLP138
T01330078 10167 20128 51014





000
SAUS46 KLOX 040548
MTRCQT
METAR KCQT 040547Z AUTO 00000KT 10SM CLR 13/08 A2994 RMK AO2 SLP138
T01330078 10167 20128 51014





000
SAUS46 KLOX 040536
MTRMWS
METAR KMWS 040530Z 23500G00KT MM/M03 RMK SNOW DEPTH 0.00





000
SAUS46 KLOX 040536
MTRMWS
METAR KMWS 040530Z 23500G00KT MM/M03 RMK SNOW DEPTH 0.00





000
SAUS46 KLOX 040515
MTRMWS
METAR KMWS 040500Z 02505G09KT 00/M04 RMK SNOW DEPTH 0.00





000
SAUS46 KLOX 040456
MTR9L2
METAR K9L2 040455Z AUTO 00000KT 10SM CLR 06/00 A2994 RMK AO2 SLP147
T00610000 TSNO $





000
SAUS46 KLOX 040456
MTR9L2
METAR K9L2 040455Z AUTO 00000KT 10SM CLR 06/00 A2994 RMK AO2 SLP147
T00610000 TSNO $





000
SAUS46 KLOX 040454
MTRMWS
METAR KMWS 040445Z 02508G10KT 01/M03 RMK SNOW DEPTH 0.00





000
SAUS46 KLOX 040454
MTRMWS
METAR KMWS 040445Z 02508G10KT 01/M03 RMK SNOW DEPTH 0.00





000
SAUS46 KLOX 040449
MTRSDB
METAR KSDB 040448Z AUTO 35016KT 10SM CLR 04/01 A2996 RMK AO2 PK WND
35027/0349 SLP133 T00390006





000
SAUS46 KLOX 040448
MTRCQT
METAR KCQT 040447Z AUTO 00000KT 10SM CLR 13/09 A2993 RMK AO2 SLP134
T01330094





000
SAUS46 KLOX 040436
MTRMWS
METAR KMWS 040430Z 23500G00KT MM/M02 RMK SNOW DEPTH 0.00





000
SAUS46 KLOX 040415
MTRMWS
METAR KMWS 040400Z 34003G05KT 01/M01 RMK SNOW DEPTH 0.00





000
SAUS46 KLOX 040356
MTR9L2
METAR K9L2 040355Z AUTO 30005KT 10SM CLR 07/00 A2992 RMK AO2 SLP141
T00670000 TSNO $





000
SAUS46 KLOX 040354
MTRMWS
METAR KMWS 040345Z 04004G08KT 01/00 RMK SNOW DEPTH 0.00





000
SAUS46 KLOX 040354
MTRMWS
METAR KMWS 040345Z 04004G08KT 01/00 RMK SNOW DEPTH 0.00





000
SAUS46 KLOX 040349
MTRSDB
METAR KSDB 040348Z AUTO 35018G25KT 10SM SCT013 04/01 A2995 RMK AO2
SLP131 T00440006





000
SAUS46 KLOX 040348
MTRCQT
METAR KCQT 040347Z AUTO 00000KT 10SM CLR 14/09 A2991 RMK AO2 SLP129
T01390094





000
SAUS46 KLOX 040336
MTRMWS
METAR KMWS 040330Z 23500G00KT MM/01 RMK SNOW DEPTH 0.00





000
SAUS46 KLOX 040315
MTRMWS
METAR KMWS 040300Z 07500G01KT 00/00 RMK SNOW DEPTH 0.00





000
SAUS46 KLOX 040259
MTR9L2
METAR K9L2 040255Z AUTO 30006KT 10SM CLR 08/01 A2989 RMK AO2 SLP135
T00830006 53009 TSNO $





000
SAUS46 KLOX 040259
MTRSDB
SPECI KSDB 040258Z AUTO 35016G23KT 10SM FEW009 SCT014 SCT020 04/01
A2993 RMK AO2 T00440006





000
SAUS46 KLOX 040259
MTR9L2
METAR K9L2 040255Z AUTO 30006KT 10SM CLR 08/01 A2989 RMK AO2 SLP135
T00830006 53009 TSNO $





000
SAUS46 KLOX 040259
MTRSDB
SPECI KSDB 040258Z AUTO 35016G23KT 10SM FEW009 SCT014 SCT020 04/01
A2993 RMK AO2 T00440006





000
SAUS46 KLOX 040254
MTRMWS
METAR KMWS 040245Z 18002G03KT 00/00 RMK SNOW DEPTH 0.00





000
SAUS46 KLOX 040249
MTRSDB
METAR KSDB 040248Z AUTO 36014G24KT 10SM SCT011 BKN017 04/01 A2993
RMK AO2 SLP127 T00440006 53002





000
SAUS46 KLOX 040249
MTRSDB
METAR KSDB 040248Z AUTO 36014G24KT 10SM SCT011 BKN017 04/01 A2993
RMK AO2 SLP127 T00440006 53002





000
SAUS46 KLOX 040248
MTRCQT
METAR KCQT 040247Z AUTO 00000KT 10SM CLR 14/09 A2990 RMK AO2 SLP124
T01440094 53005





000
SAUS46 KLOX 040244
MTRSDB
SPECI KSDB 040243Z AUTO 36012G24KT 10SM SCT011 BKN017 04/01 A2993
RMK AO2 T00440006





000
SAUS46 KLOX 040244
MTRSDB
SPECI KSDB 040243Z AUTO 36012G24KT 10SM SCT011 BKN017 04/01 A2993
RMK AO2 T00440006





000
SAUS46 KLOX 040236
MTRMWS
METAR KMWS 040230Z 23500G00KT MM/01 RMK SNOW DEPTH 0.00





000
SAUS46 KLOX 040219
MTRSDB
SPECI KSDB 040218Z AUTO 36010G15KT 10SM BKN014 BKN019 05/01 A2993
RMK AO2 T00500006





000
SAUS46 KLOX 040219
MTRSDB
SPECI KSDB 040218Z AUTO 36010G15KT 10SM BKN014 BKN019 05/01 A2993
RMK AO2 T00500006





000
SAUS46 KLOX 040215
MTRMWS
METAR KMWS 040200Z  0501G03KT 02/01 RMK SNOW DEPTH 0.00





000
SAUS46 KLOX 040159
MTR9L2
METAR K9L2 040155Z AUTO 29010KT 10SM CLR 11/00 A2987 RMK AO2 SLP125
T01110000 TSNO $





000
SAUS46 KLOX 040159
MTR9L2
METAR K9L2 040155Z AUTO 29010KT 10SM CLR 11/00 A2987 RMK AO2 SLP125
T01110000 TSNO $





000
SAUS46 KLOX 040154
MTRMWS
METAR KMWS 040145Z 14502G03KT 03/03 RMK SNOW DEPTH 0.00





000
SAUS46 KLOX 040154
MTRMWS
METAR KMWS 040145Z 14502G03KT 03/03 RMK SNOW DEPTH 0.00





000
SAUS46 KLOX 040149
MTRCQT
METAR KCQT 040147Z AUTO VRB03KT 10SM CLR 14/08 A2989 RMK AO2 SLP121
T01440083





000
SAUS46 KLOX 040149
MTRSDB
METAR KSDB 040148Z AUTO 36012G20KT 10SM SCT013 BKN020 04/01 A2992
RMK AO2 SLP122 T00440006





000
SAUS46 KLOX 040136
MTRMWS
METAR KMWS 040130Z 23500G00KT MM/03 RMK SNOW DEPTH 0.00





000
SAUS46 KLOX 040136
MTRMWS
METAR KMWS 040130Z 23500G00KT MM/03 RMK SNOW DEPTH 0.00





000
SAUS46 KLOX 040115
MTRMWS
METAR KMWS 040100Z 23500G00KT 03/02 RMK SNOW DEPTH 1.00





000
SAUS46 KLOX 040115
MTRMWS
METAR KMWS 040100Z 23500G00KT 03/02 RMK SNOW DEPTH 1.00





000
SAUS46 KLOX 040059
MTR9L2
METAR K9L2 040055Z AUTO 28011KT 10SM CLR 13/M01 A2986 RMK AO2 SLP119
T01331006 TSNO $





000
SAUS46 KLOX 040059
MTR9L2
METAR K9L2 040055Z AUTO 28011KT 10SM CLR 13/M01 A2986 RMK AO2 SLP119
T01331006 TSNO $





000
SAUS46 KLOX 040054
MTRMWS
METAR KMWS 040045Z 23500G00KT 04/03 RMK SNOW DEPTH 1.00





000
SAUS46 KLOX 040054
MTRMWS
METAR KMWS 040045Z 23500G00KT 04/03 RMK SNOW DEPTH 1.00





000
SAUS46 KLOX 040049
MTRSDB
METAR KSDB 040048Z AUTO 36012KT 10SM CLR 06/01 A2992 RMK AO2 SLP120
T00610006





000
SAUS46 KLOX 040049
MTRSDB
METAR KSDB 040048Z AUTO 36012KT 10SM CLR 06/01 A2992 RMK AO2 SLP120
T00610006





000
SAUS46 KLOX 040048
MTRCQT
METAR KCQT 040047Z AUTO VRB04KT 10SM CLR 16/07 A2988 RMK AO2 SLP118
T01610067





000
SAUS46 KLOX 040048
MTRCQT
METAR KCQT 040047Z AUTO VRB04KT 10SM CLR 16/07 A2988 RMK AO2 SLP118
T01610067





000
SAUS46 KLOX 040036
MTRMWS
METAR KMWS 040030Z 23500G00KT MM/04 RMK SNOW DEPTH 1.00





000
SAUS46 KLOX 040036
MTRMWS
METAR KMWS 040030Z 23500G00KT MM/04 RMK SNOW DEPTH 1.00





000
SAUS46 KLOX 040015
MTRMWS
METAR KMWS 040000Z 23500G00KT 06/03 RMK SNOW DEPTH 1.00





000
SAUS46 KLOX 032356
MTR9L2
METAR K9L2 032355Z AUTO 29012KT 10SM FEW037 BKN047 15/01 A2987 RMK
AO2 SLP118 T01500006 10156 20078 56014 TSNO $





000
SAUS46 KLOX 032356
MTR9L2
METAR K9L2 032355Z AUTO 29012KT 10SM FEW037 BKN047 15/01 A2987 RMK
AO2 SLP118 T01500006 10156 20078 56014 TSNO $





000
SAUS46 KLOX 032354
MTRMWS
METAR KMWS 032345Z 23500G00KT 06/01 RMK SNOW DEPTH 1.00





000
SAUS46 KLOX 032354
MTRMWS
METAR KMWS 032345Z 23500G00KT 06/01 RMK SNOW DEPTH 1.00





000
SAUS46 KLOX 032349
MTRSDB
METAR KSDB 032348Z AUTO 35016G23KT 10SM CLR 07/00 A2993 RMK AO2
SLP120 T00720000 10089 20061 56008





000
SAUS46 KLOX 032349
MTRSDB
METAR KSDB 032348Z AUTO 35016G23KT 10SM CLR 07/00 A2993 RMK AO2
SLP120 T00720000 10089 20061 56008





000
SAUS46 KLOX 032349
MTRCQT
METAR KCQT 032347Z AUTO VRB05KT 10SM CLR 17/07 A2988 RMK AO2 SLP119
T01720072 10194 20156 56008





000
SAUS46 KLOX 032349
MTRCQT
METAR KCQT 032347Z AUTO VRB05KT 10SM CLR 17/07 A2988 RMK AO2 SLP119
T01720072 10194 20156 56008





000
SAUS46 KLOX 032336
MTRMWS
METAR KMWS 032330Z 23500G00KT MM/02 RMK SNOW DEPTH 1.00





000
SAUS46 KLOX 032336
MTRMWS
METAR KMWS 032330Z 23500G00KT MM/02 RMK SNOW DEPTH 1.00





000
SAUS46 KLOX 032315
MTRMWS
METAR KMWS 032300Z 23500G00KT 05/01 RMK SNOW DEPTH 1.00





000
SAUS46 KLOX 032315
MTRMWS
METAR KMWS 032300Z 23500G00KT 05/01 RMK SNOW DEPTH 1.00





000
SAUS46 KLOX 032259
MTR9L2
METAR K9L2 032255Z AUTO 27006KT 10SM CLR 15/M03 A2987 RMK AO2 SLP119
T01501028 TSNO $





000
SAUS46 KLOX 032259
MTR9L2
METAR K9L2 032255Z AUTO 27006KT 10SM CLR 15/M03 A2987 RMK AO2 SLP119
T01501028 TSNO $





000
SAUS46 KLOX 032254
MTRMWS
METAR KMWS 032245Z 23500G00KT 04/00 RMK SNOW DEPTH 1.00





000
SAUS46 KLOX 032254
MTRMWS
METAR KMWS 032245Z 23500G00KT 04/00 RMK SNOW DEPTH 1.00





000
SAUS46 KLOX 032249
MTRSDB
METAR KSDB 032248Z AUTO 34019G25KT 10SM CLR 08/01 A2993 RMK AO2 PK
WND 35027/2208 SLP122 T00780011





000
SAUS46 KLOX 032249
MTRCQT
METAR KCQT 032247Z AUTO VRB05KT 10SM CLR 18/07 A2989 RMK AO2 SLP122
T01780072





000
SAUS46 KLOX 032249
MTRSDB
METAR KSDB 032248Z AUTO 34019G25KT 10SM CLR 08/01 A2993 RMK AO2 PK
WND 35027/2208 SLP122 T00780011





000
SAUS46 KLOX 032249
MTRCQT
METAR KCQT 032247Z AUTO VRB05KT 10SM CLR 18/07 A2989 RMK AO2 SLP122
T01780072





000
SAUS46 KLOX 032236
MTRMWS
METAR KMWS 032230Z 23500G00KT MM/01 RMK SNOW DEPTH 1.00





000
SAUS46 KLOX 032215
MTRMWS
METAR KMWS 032200Z 23500G00KT 05/01 RMK SNOW DEPTH 1.00





000
SAUS46 KLOX 032156
MTR9L2
METAR K9L2 032155Z AUTO 02003KT 10SM CLR 15/M03 A2988 RMK AO2 SLP122
T01501033 TSNO $





000
SAUS46 KLOX 032154
MTRMWS
METAR KMWS 032145Z 23500G00KT 03/01 RMK SNOW DEPTH 1.00





000
SAUS46 KLOX 032149
MTRSDB
METAR KSDB 032148Z AUTO 34019G24KT 10SM FEW020 08/01 A2994 RMK AO2
PK WND 34026/2130 SLP124 T00780011





000
SAUS46 KLOX 032148
MTRCQT
METAR KCQT 032147Z AUTO VRB03KT 10SM CLR 18/06 A2990 RMK AO2 SLP123
T01780056





000
SAUS46 KLOX 032148
MTRCQT
METAR KCQT 032147Z AUTO VRB03KT 10SM CLR 18/06 A2990 RMK AO2 SLP123
T01780056





000
SAUS46 KLOX 032137
MTRMWS
METAR KMWS 032130Z 23500G00KT MM/02 RMK SNOW DEPTH 0.00





000
SAUS46 KLOX 032115
MTRMWS
METAR KMWS 032100Z 23500G00KT 05/03 RMK SNOW DEPTH 1.00





000
SAUS46 KLOX 032059
MTR9L2
METAR K9L2 032055Z AUTO 00000KT 10SM CLR 13/00 A2991 RMK AO2 SLP134
T01280000 58019 TSNO $





000
SAUS46 KLOX 032059
MTR9L2
METAR K9L2 032055Z AUTO 00000KT 10SM CLR 13/00 A2991 RMK AO2 SLP134
T01280000 58019 TSNO $





000
SAUS46 KLOX 032054
MTRMWS
METAR KMWS 032045Z 23500G00KT 04/02 RMK SNOW DEPTH 1.00





000
SAUS46 KLOX 032049
MTRSDB
METAR KSDB 032048Z AUTO 35018G24KT 10SM SCT016 08/02 A2995 RMK AO2
SLP130 T00830017 58004





000
SAUS46 KLOX 032049
MTRSDB
METAR KSDB 032048Z AUTO 35018G24KT 10SM SCT016 08/02 A2995 RMK AO2
SLP130 T00830017 58004





000
SAUS46 KLOX 032048
MTRCQT
METAR KCQT 032047Z AUTO VRB03KT 10SM CLR 18/03 A2991 RMK AO2 SLP128
T01830028 58018





000
SAUS46 KLOX 032048
MTRCQT
METAR KCQT 032047Z AUTO VRB03KT 10SM CLR 18/03 A2991 RMK AO2 SLP128
T01830028 58018





000
SAUS46 KLOX 032036
MTRMWS
METAR KMWS 032030Z 23500G00KT 05/03 RMK SNOW DEPTH 1.00





000
SAUS46 KLOX 032010
MTRSDB
SPECI KSDB 032009Z AUTO 35016G22KT 10SM SCT015 08/02 A2996 RMK AO2
T00830022





000
SAUS46 KLOX 032003
MTRSDB
SPECI KSDB 032003Z AUTO 35017G22KT 10SM BKN015 08/02 A2996 RMK AO2
T00780017





000
SAUS46 KLOX 032003
MTRSDB
SPECI KSDB 032003Z AUTO 35017G22KT 10SM BKN015 08/02 A2996 RMK AO2
T00780017





000
SAUS46 KLOX 031959
MTR9L2
METAR K9L2 031955Z AUTO 15004KT 10SM CLR 12/01 A2994 RMK AO2 SLP142
T01170006 TSNO $





000
SAUS46 KLOX 031959
MTR9L2
METAR K9L2 031955Z AUTO 15004KT 10SM CLR 12/01 A2994 RMK AO2 SLP142
T01170006 TSNO $





000
SAUS46 KLOX 031949
MTRSDB
METAR KSDB 031948Z AUTO 35014G20KT 10SM BKN011 BKN017 07/01 A2996
RMK AO2 SLP133 T00720011





000
SAUS46 KLOX 031949
MTRSDB
METAR KSDB 031948Z AUTO 35014G20KT 10SM BKN011 BKN017 07/01 A2996
RMK AO2 SLP133 T00720011





000
SAUS46 KLOX 031948
MTRCQT
METAR KCQT 031947Z AUTO VRB03KT 10SM CLR 18/03 A2994 RMK AO2 SLP137
T01780028





000
SAUS46 KLOX 031915
MTRMWS
METAR KMWS 031900Z 23500G00KT 10/M04 RMK SNOW DEPTH 1.00





000
SAUS46 KLOX 031856
MTR9L2
METAR K9L2 031855Z AUTO 16003KT 10SM CLR 09/01 A2996 RMK AO2 SLP151
T00940011 TSNO $





000
SAUS46 KLOX 031856
MTR9L2
METAR K9L2 031855Z AUTO 16003KT 10SM CLR 09/01 A2996 RMK AO2 SLP151
T00940011 TSNO $





000
SAUS46 KLOX 031850
MTRSDB
METAR KSDB 031848Z AUTO 35014G18KT 10SM BKN011 BKN017 07/02 A2997
RMK AO2 SLP136 T00720022





000
SAUS46 KLOX 031850
MTRSDB
METAR KSDB 031848Z AUTO 35014G18KT 10SM BKN011 BKN017 07/02 A2997
RMK AO2 SLP136 T00720022





000
SAUS46 KLOX 031848
MTRCQT
METAR KCQT 031847Z AUTO VRB03KT 10SM CLR 18/03 A2995 RMK AO2 SLP143
T01780033





000
SAUS46 KLOX 031848
MTRCQT
METAR KCQT 031847Z AUTO VRB03KT 10SM CLR 18/03 A2995 RMK AO2 SLP143
T01780033





000
SAUS46 KLOX 031836
MTRMWS
METAR KMWS 031830Z 23500G00KT MM/00 RMK SNOW DEPTH 1.00





000
SAUS46 KLOX 031830
MTRSDB
SPECI KSDB 031829Z AUTO 35016G20KT 10SM BKN013 BKN021 06/02 A2997
RMK AO2 T00610017





000
SAUS46 KLOX 031815
MTRMWS
METAR KMWS 031800Z 23500G00KT MM/00 RMK SNOW DEPTH 1.00





000
SAUS46 KLOX 031809
MTRSDB
SPECI KSDB 031808Z AUTO 36011G16KT 10SM BKN015 07/02 A2997 RMK AO2
T00670017





000
SAUS46 KLOX 031801
MTRSDB
SPECI KSDB 031759Z AUTO 35013G19KT 10SM BKN014 06/01 A2997 RMK AO2
T00610011





000
SAUS46 KLOX 031759
MTR9L2
METAR K9L2 031755Z AUTO 13003KT 10SM CLR 08/02 A2997 RMK AO2 SLP156
T00780017 10078 21017 51011 TSNO $





000
SAUS46 KLOX 031754
MTRMWS
METAR KMWS 031745Z 23500G00KT MM/00 RMK SNOW DEPTH 1.00





000
SAUS46 KLOX 031754
MTRMWS
METAR KMWS 031745Z 23500G00KT MM/00 RMK SNOW DEPTH 1.00





000
SAUS46 KLOX 031749
MTRSDB
METAR KSDB 031748Z AUTO 36009G19KT 10SM FEW012 SCT017 06/01 A2997
RMK AO2 SLP136 T00560011 10061 20022 51013





000
SAUS46 KLOX 031749
MTRSDB
METAR KSDB 031748Z AUTO 36009G19KT 10SM FEW012 SCT017 06/01 A2997
RMK AO2 SLP136 T00560011 10061 20022 51013





000
SAUS46 KLOX 031748
MTRCQT
METAR KCQT 031747Z AUTO 00000KT 10SM CLR 16/05 A2996 RMK AO2 SLP146
T01610050 10161 20089 50007





000
SAUS46 KLOX 031748
MTRCQT
METAR KCQT 031747Z AUTO 00000KT 10SM CLR 16/05 A2996 RMK AO2 SLP146
T01610050 10161 20089 50007





000
SAUS46 KLOX 031736
MTRMWS
METAR KMWS 031730Z 23500G00KT MM/00 RMK SNOW DEPTH 1.00





000
SAUS46 KLOX 031736
MTRMWS
METAR KMWS 031730Z 23500G00KT MM/00 RMK SNOW DEPTH 1.00





000
SAUS46 KLOX 031715
MTRMWS
METAR KMWS 031700Z 11003G04KT 06/M03 RMK SNOW DEPTH 1.00





000
SAUS46 KLOX 031715
MTRMWS
METAR KMWS 031700Z 11003G04KT 06/M03 RMK SNOW DEPTH 1.00





000
SAUS46 KLOX 031700
MTRMWS
METAR KMWS 031645Z 07502G03KT 05/M02 RMK SNOW DEPTH 1.00





000
SAUS46 KLOX 031659
MTR9L2
METAR K9L2 031655Z AUTO 00000KT 10SM CLR 06/01 A2997 RMK AO2 SLP156
T00610011 TSNO $





000
SAUS46 KLOX 031654
MTRSDB
SPECI KSDB 031653Z AUTO 36010G17KT 10SM SCT003 05/02 A2996 RMK AO2
T00500022





000
SAUS46 KLOX 031654
MTRSDB
SPECI KSDB 031653Z AUTO 36010G17KT 10SM SCT003 05/02 A2996 RMK AO2
T00500022





000
SAUS46 KLOX 031650
MTRSDB
METAR KSDB 031648Z AUTO 36011G16KT 8SM BKN003 05/02 A2996 RMK AO2
SLP136 T00500022





000
SAUS46 KLOX 031650
MTRSDB
METAR KSDB 031648Z AUTO 36011G16KT 8SM BKN003 05/02 A2996 RMK AO2
SLP136 T00500022





000
SAUS46 KLOX 031648
MTRCQT
METAR KCQT 031647Z AUTO 00000KT 10SM CLR 14/06 A2997 RMK AO2 SLP149
T01390056





000
SAUS46 KLOX 031646
MTRSDB
SPECI KSDB 031644Z AUTO 36010G15KT 8SM BKN003 05/02 A2996 RMK AO2
T00500017





000
SAUS46 KLOX 031636
MTRMWS
METAR KMWS 031630Z 23500G00KT MM/M02 RMK SNOW DEPTH 1.00





000
SAUS46 KLOX 031634
MTRSDB
SPECI KSDB 031633Z AUTO 35014KT 5SM HZ BKN001 04/02 A2996 RMK AO2
T00440017





000
SAUS46 KLOX 031634
MTRSDB
SPECI KSDB 031633Z AUTO 35014KT 5SM HZ BKN001 04/02 A2996 RMK AO2
T00440017





000
SAUS46 KLOX 031629
MTRSDB
SPECI KSDB 031628Z AUTO 36011G16KT 2SM HZ OVC001 04/02 A2996 RMK AO2
VIS 1V5 T00440017





000
SAUS46 KLOX 031627
MTRSDB
SPECI KSDB 031626Z AUTO 36007G14KT 1SM HZ VV001 04/02 A2995 RMK AO2
VIS 1/4V4 T00440017





000
SAUS46 KLOX 031615
MTRMWS
METAR KMWS 031600Z 23500G00KT MM/M02 RMK SNOW DEPTH  M





000
SAUS46 KLOX 031615
MTRMWS
METAR KMWS 031600Z 23500G00KT MM/M02 RMK SNOW DEPTH  M





000
SAUS46 KLOX 031556
MTR9L2
METAR K9L2 031555Z AUTO 00000KT 10SM CLR 03/M01 A2996 RMK AO2 SLP155
T00281006 TSNO $





000
SAUS46 KLOX 031549
MTRSDB
METAR KSDB 031548Z AUTO 36009KT M1/4SM FG VV001 03/01 A2994 RMK AO2
SLP131 T00330011





000
SAUS46 KLOX 031548
MTRCQT
METAR KCQT 031547Z AUTO 00000KT 10SM CLR 11/06 A2996 RMK AO2 SLP144
T01110056





000
SAUS46 KLOX 031536
MTRMWS
METAR KMWS 031530Z 23500G00KT MM/M02 RMK SNOW DEPTH  M





000
SAUS46 KLOX 031536
MTRMWS
METAR KMWS 031530Z 23500G00KT MM/M02 RMK SNOW DEPTH  M





000
SAUS46 KLOX 031535
MTRSDB
SPECI KSDB 031534Z AUTO 36011KT 1/4SM FG BKN001 BKN006 03/01 A2994
RMK AO2 T00330011





000
SAUS46 KLOX 031535
MTRSDB
SPECI KSDB 031534Z AUTO 36011KT 1/4SM FG BKN001 BKN006 03/01 A2994
RMK AO2 T00330011





000
SAUS46 KLOX 031531
MTRSDB
SPECI KSDB 031529Z AUTO 35014KT 1/4SM FG BKN003 03/01 A2994 RMK AO2
VIS M1/4V3 T00330011





000
SAUS46 KLOX 031531
MTRSDB
SPECI KSDB 031529Z AUTO 35014KT 1/4SM FG BKN003 03/01 A2994 RMK AO2
VIS M1/4V3 T00330011





000
SAUS46 KLOX 031528
MTRSDB
SPECI KSDB 031526Z AUTO 36012G16KT 1 1/4SM BR BKN005 03/01 A2994 RMK
AO2 VIS 1/4V5 T00330011





000
SAUS46 KLOX 031523
MTRSDB
SPECI KSDB 031522Z AUTO 35016KT 1 1/2SM BR BKN005 03/01 A2993 RMK
AO2 T00330011





000
SAUS46 KLOX 031515
MTRMWS
METAR KMWS 031500Z 05505G06KT 01/M02 RMK SNOW DEPTH  M





000
SAUS46 KLOX 031503 COR
MTRSDB
SPECI KSDB 031457Z AUTO 02005KT 6SM BR BKN006 03/01 A2992 RMK AO2
T00280006





000
SAUS46 KLOX 031456
MTR9L2
METAR K9L2 031455Z AUTO 00000KT 10SM CLR M01/M02 A2993 RMK AO2
SLP149 T10061022 53004 FZRANO TSNO $





000
SAUS46 KLOX 031456
MTR9L2
METAR K9L2 031455Z AUTO 00000KT 10SM CLR M01/M02 A2993 RMK AO2
SLP149 T10061022 53004 FZRANO TSNO $





000
SAUS46 KLOX 031454
MTRMWS
METAR KMWS 031445Z 04004G05KT M02/M02 RMK SNOW DEPTH  M





000
SAUS46 KLOX 031454
MTRMWS
METAR KMWS 031445Z 04004G05KT M02/M02 RMK SNOW DEPTH  M





000
SAUS46 KLOX 031449
MTRSDB
METAR KSDB 031448Z AUTO 02004KT 4SM BR BKN004 BKN008 02/01 A2992 RMK
AO2 SLP126 T00220006 53003





000
SAUS46 KLOX 031449
MTRSDB
METAR KSDB 031448Z AUTO 02004KT 4SM BR BKN004 BKN008 02/01 A2992 RMK
AO2 SLP126 T00220006 53003





000
SAUS46 KLOX 031448
MTRCQT
METAR KCQT 031447Z AUTO 00000KT 10SM CLR 09/06 A2994 RMK AO2 SLP140
T00940061 51006





000
SAUS46 KLOX 031448
MTRCQT
METAR KCQT 031447Z AUTO 00000KT 10SM CLR 09/06 A2994 RMK AO2 SLP140
T00940061 51006





000
SAUS46 KLOX 031445
MTRSDB
SPECI KSDB 031444Z AUTO 01003KT 3SM BR BKN002 02/00 A2992 RMK AO2
T00220000





000
SAUS46 KLOX 031445
MTRSDB
SPECI KSDB 031444Z AUTO 01003KT 3SM BR BKN002 02/00 A2992 RMK AO2
T00220000





000
SAUS46 KLOX 031443
MTRSDB
SPECI KSDB 031442Z AUTO 01003KT 1 3/4SM BR BKN002 BKN006 02/00 A2992
RMK AO2 T00220000





000
SAUS46 KLOX 031443
MTRSDB
SPECI KSDB 031442Z AUTO 01003KT 1 3/4SM BR BKN002 BKN006 02/00 A2992
RMK AO2 T00220000





000
SAUS46 KLOX 031442
MTRSDB
SPECI KSDB 031440Z AUTO 01003KT 3/4SM BR VV002 02/01 A2992 RMK AO2
T00220006





000
SAUS46 KLOX 031442
MTRSDB
SPECI KSDB 031440Z AUTO 01003KT 3/4SM BR VV002 02/01 A2992 RMK AO2
T00220006





000
SAUS46 KLOX 031436
MTRMWS
METAR KMWS 031430Z 23500G00KT MM/M01 RMK SNOW DEPTH  M





    US Dept of Commerce
    National Oceanic and Atmospheric Administration
    National Weather Service
    1325 East West Highway
    Silver Spring, MD 20910
    Page Author: NWS Internet Services Team
Disclaimer
Information Quality
Credits
Glossary
Privacy Policy
Freedom of Information Act (FOIA)
About Us
Career Opportunities